<?xml version="1.0" encoding="UTF-8" standalone="no" ?>
<gpx xmlns="http://www.topografix.com/GPX/1/1" xmlns:xsi="http://www.w3.org/2001/XMLSchema-instance" xsi:schemaLocation="http://www.topografix.com/GPX/1/1 http://www.topografix.com/GPX/1/1/gpx.xsd" version="1.1" creator="VisuGPX - https://www.visugpx.com">
  <metadata>
    <name>Pernois - 15km</name>
    <desc><![CDATA[Walkmeter Marche 31 mars 2013 09:05:24]]></desc>
  </metadata>
  <trk>
    <name><![CDATA[Ch en S. Pernois]]></name>
    <trkseg>
      <trkpt lat="50.05038" lon="2.18466">
        <ele>45</ele>
        <time>2013-03-31T07:05:24Z</time>
      </trkpt>
      <trkpt lat="50.05042" lon="2.18467">
        <ele>44.4</ele>
        <time>2013-03-31T07:05:25Z</time>
      </trkpt>
      <trkpt lat="50.05056" lon="2.18466">
        <ele>36.9</ele>
        <time>2013-03-31T07:05:33Z</time>
      </trkpt>
      <trkpt lat="50.0507" lon="2.18471">
        <ele>34.1</ele>
        <time>2013-03-31T07:05:47Z</time>
      </trkpt>
      <trkpt lat="50.05082" lon="2.18459">
        <ele>33.4</ele>
        <time>2013-03-31T07:05:58Z</time>
      </trkpt>
      <trkpt lat="50.05089" lon="2.18457">
        <ele>33.1</ele>
        <time>2013-03-31T07:06:04Z</time>
      </trkpt>
      <trkpt lat="50.05099" lon="2.18451">
        <ele>33.9</ele>
        <time>2013-03-31T07:06:13Z</time>
      </trkpt>
      <trkpt lat="50.05113" lon="2.18453">
        <ele>34.5</ele>
        <time>2013-03-31T07:06:19Z</time>
      </trkpt>
      <trkpt lat="50.05127" lon="2.18453">
        <ele>34.8</ele>
        <time>2013-03-31T07:06:27Z</time>
      </trkpt>
      <trkpt lat="50.05141" lon="2.18455">
        <ele>32.5</ele>
        <time>2013-03-31T07:06:41Z</time>
      </trkpt>
      <trkpt lat="50.05154" lon="2.18448">
        <ele>33.8</ele>
        <time>2013-03-31T07:06:53Z</time>
      </trkpt>
      <trkpt lat="50.05167" lon="2.18454">
        <ele>31.9</ele>
        <time>2013-03-31T07:07:04Z</time>
      </trkpt>
      <trkpt lat="50.0518" lon="2.18442">
        <ele>29.6</ele>
        <time>2013-03-31T07:07:20Z</time>
      </trkpt>
      <trkpt lat="50.05185" lon="2.18421">
        <ele>32.1</ele>
        <time>2013-03-31T07:07:35Z</time>
      </trkpt>
      <trkpt lat="50.05193" lon="2.18404">
        <ele>33.4</ele>
        <time>2013-03-31T07:07:45Z</time>
      </trkpt>
      <trkpt lat="50.05193" lon="2.18383">
        <ele>34.5</ele>
        <time>2013-03-31T07:07:55Z</time>
      </trkpt>
      <trkpt lat="50.05192" lon="2.18362">
        <ele>36</ele>
        <time>2013-03-31T07:08:03Z</time>
      </trkpt>
      <trkpt lat="50.05199" lon="2.18351">
        <ele>38</ele>
        <time>2013-03-31T07:08:14Z</time>
      </trkpt>
      <trkpt lat="50.05212" lon="2.18358">
        <ele>39.4</ele>
        <time>2013-03-31T07:08:32Z</time>
      </trkpt>
      <trkpt lat="50.05226" lon="2.18363">
        <ele>39.8</ele>
        <time>2013-03-31T07:08:40Z</time>
      </trkpt>
      <trkpt lat="50.05239" lon="2.18361">
        <ele>37.9</ele>
        <time>2013-03-31T07:08:48Z</time>
      </trkpt>
      <trkpt lat="50.05254" lon="2.18359">
        <ele>35.7</ele>
        <time>2013-03-31T07:08:57Z</time>
      </trkpt>
      <trkpt lat="50.05268" lon="2.18366">
        <ele>36.2</ele>
        <time>2013-03-31T07:09:11Z</time>
      </trkpt>
      <trkpt lat="50.05283" lon="2.18367">
        <ele>38.8</ele>
        <time>2013-03-31T07:09:19Z</time>
      </trkpt>
      <trkpt lat="50.05294" lon="2.18351">
        <ele>40.4</ele>
        <time>2013-03-31T07:09:32Z</time>
      </trkpt>
      <trkpt lat="50.05307" lon="2.18348">
        <ele>40.9</ele>
        <time>2013-03-31T07:09:43Z</time>
      </trkpt>
      <trkpt lat="50.05321" lon="2.18351">
        <ele>41.5</ele>
        <time>2013-03-31T07:09:55Z</time>
      </trkpt>
      <trkpt lat="50.05336" lon="2.18356">
        <ele>41.3</ele>
        <time>2013-03-31T07:10:10Z</time>
      </trkpt>
      <trkpt lat="50.05349" lon="2.18348">
        <ele>42.3</ele>
        <time>2013-03-31T07:10:28Z</time>
      </trkpt>
      <trkpt lat="50.05363" lon="2.1835">
        <ele>43.2</ele>
        <time>2013-03-31T07:10:39Z</time>
      </trkpt>
      <trkpt lat="50.05377" lon="2.18355">
        <ele>44.2</ele>
        <time>2013-03-31T07:10:51Z</time>
      </trkpt>
      <trkpt lat="50.05391" lon="2.18357">
        <ele>45.2</ele>
        <time>2013-03-31T07:11:03Z</time>
      </trkpt>
      <trkpt lat="50.05402" lon="2.1837">
        <ele>48.5</ele>
        <time>2013-03-31T07:11:18Z</time>
      </trkpt>
      <trkpt lat="50.05415" lon="2.18374">
        <ele>46.6</ele>
        <time>2013-03-31T07:11:28Z</time>
      </trkpt>
      <trkpt lat="50.05426" lon="2.18387">
        <ele>49.8</ele>
        <time>2013-03-31T07:11:39Z</time>
      </trkpt>
      <trkpt lat="50.05439" lon="2.18393">
        <ele>55</ele>
        <time>2013-03-31T07:11:51Z</time>
      </trkpt>
      <trkpt lat="50.05453" lon="2.18395">
        <ele>57.9</ele>
        <time>2013-03-31T07:12:00Z</time>
      </trkpt>
      <trkpt lat="50.05467" lon="2.1839">
        <ele>63.4</ele>
        <time>2013-03-31T07:12:10Z</time>
      </trkpt>
      <trkpt lat="50.05481" lon="2.18384">
        <ele>68</ele>
        <time>2013-03-31T07:12:21Z</time>
      </trkpt>
      <trkpt lat="50.05495" lon="2.18383">
        <ele>72.1</ele>
        <time>2013-03-31T07:12:33Z</time>
      </trkpt>
      <trkpt lat="50.05509" lon="2.18384">
        <ele>73.6</ele>
        <time>2013-03-31T07:12:46Z</time>
      </trkpt>
      <trkpt lat="50.05523" lon="2.18383">
        <ele>74.7</ele>
        <time>2013-03-31T07:12:56Z</time>
      </trkpt>
      <trkpt lat="50.05537" lon="2.1838">
        <ele>74.5</ele>
        <time>2013-03-31T07:13:07Z</time>
      </trkpt>
      <trkpt lat="50.05551" lon="2.1838">
        <ele>76.6</ele>
        <time>2013-03-31T07:13:19Z</time>
      </trkpt>
      <trkpt lat="50.05565" lon="2.18382">
        <ele>78.6</ele>
        <time>2013-03-31T07:13:30Z</time>
      </trkpt>
      <trkpt lat="50.05579" lon="2.18377">
        <ele>80.1</ele>
        <time>2013-03-31T07:13:41Z</time>
      </trkpt>
      <trkpt lat="50.05593" lon="2.18378">
        <ele>81.3</ele>
        <time>2013-03-31T07:13:52Z</time>
      </trkpt>
      <trkpt lat="50.05607" lon="2.18381">
        <ele>80</ele>
        <time>2013-03-31T07:13:59Z</time>
      </trkpt>
      <trkpt lat="50.05621" lon="2.1838">
        <ele>83.9</ele>
        <time>2013-03-31T07:14:12Z</time>
      </trkpt>
      <trkpt lat="50.05634" lon="2.18385">
        <ele>82.2</ele>
        <time>2013-03-31T07:14:27Z</time>
      </trkpt>
      <trkpt lat="50.05646" lon="2.18398">
        <ele>84</ele>
        <time>2013-03-31T07:14:38Z</time>
      </trkpt>
      <trkpt lat="50.0566" lon="2.18393">
        <ele>91</ele>
        <time>2013-03-31T07:14:58Z</time>
      </trkpt>
      <trkpt lat="50.05674" lon="2.18392">
        <ele>92.6</ele>
        <time>2013-03-31T07:15:02Z</time>
      </trkpt>
      <trkpt lat="50.05688" lon="2.1839">
        <ele>94.4</ele>
        <time>2013-03-31T07:15:08Z</time>
      </trkpt>
      <trkpt lat="50.05699" lon="2.18403">
        <ele>95.9</ele>
        <time>2013-03-31T07:15:23Z</time>
      </trkpt>
      <trkpt lat="50.05713" lon="2.184">
        <ele>97.5</ele>
        <time>2013-03-31T07:15:46Z</time>
      </trkpt>
      <trkpt lat="50.05727" lon="2.18406">
        <ele>97.4</ele>
        <time>2013-03-31T07:15:55Z</time>
      </trkpt>
      <trkpt lat="50.05734" lon="2.18409">
        <ele>95.4</ele>
        <time>2013-03-31T07:16:04Z</time>
      </trkpt>
      <trkpt lat="50.05749" lon="2.18403">
        <ele>94.4</ele>
        <time>2013-03-31T07:16:13Z</time>
      </trkpt>
      <trkpt lat="50.05764" lon="2.18404">
        <ele>92.9</ele>
        <time>2013-03-31T07:16:24Z</time>
      </trkpt>
      <trkpt lat="50.05777" lon="2.18409">
        <ele>93.1</ele>
        <time>2013-03-31T07:16:39Z</time>
      </trkpt>
      <trkpt lat="50.05792" lon="2.18418">
        <ele>92.4</ele>
        <time>2013-03-31T07:16:58Z</time>
      </trkpt>
      <trkpt lat="50.05792" lon="2.18418">
        <ele>92.4</ele>
        <time>2013-03-31T07:20:04Z</time>
      </trkpt>
      <trkpt lat="50.05792" lon="2.18432">
        <ele>89.8</ele>
        <time>2013-03-31T07:20:07Z</time>
      </trkpt>
      <trkpt lat="50.05798" lon="2.18452">
        <ele>89.2</ele>
        <time>2013-03-31T07:20:21Z</time>
      </trkpt>
      <trkpt lat="50.05804" lon="2.18472">
        <ele>88.7</ele>
        <time>2013-03-31T07:20:34Z</time>
      </trkpt>
      <trkpt lat="50.05812" lon="2.18489">
        <ele>88.2</ele>
        <time>2013-03-31T07:20:48Z</time>
      </trkpt>
      <trkpt lat="50.05819" lon="2.18507">
        <ele>87.3</ele>
        <time>2013-03-31T07:21:02Z</time>
      </trkpt>
      <trkpt lat="50.05829" lon="2.18522">
        <ele>86.1</ele>
        <time>2013-03-31T07:21:14Z</time>
      </trkpt>
      <trkpt lat="50.05839" lon="2.18538">
        <ele>85.2</ele>
        <time>2013-03-31T07:21:28Z</time>
      </trkpt>
      <trkpt lat="50.05847" lon="2.18556">
        <ele>87.6</ele>
        <time>2013-03-31T07:21:41Z</time>
      </trkpt>
      <trkpt lat="50.05856" lon="2.18573">
        <ele>89.6</ele>
        <time>2013-03-31T07:21:52Z</time>
      </trkpt>
      <trkpt lat="50.05865" lon="2.18591">
        <ele>91.7</ele>
        <time>2013-03-31T07:22:02Z</time>
      </trkpt>
      <trkpt lat="50.05872" lon="2.18611">
        <ele>93.4</ele>
        <time>2013-03-31T07:22:17Z</time>
      </trkpt>
      <trkpt lat="50.05878" lon="2.1863">
        <ele>93</ele>
        <time>2013-03-31T07:22:29Z</time>
      </trkpt>
      <trkpt lat="50.05884" lon="2.18649">
        <ele>94.1</ele>
        <time>2013-03-31T07:22:40Z</time>
      </trkpt>
      <trkpt lat="50.0589" lon="2.18669">
        <ele>96.8</ele>
        <time>2013-03-31T07:22:49Z</time>
      </trkpt>
      <trkpt lat="50.05898" lon="2.18687">
        <ele>99</ele>
        <time>2013-03-31T07:23:01Z</time>
      </trkpt>
      <trkpt lat="50.05903" lon="2.18708">
        <ele>100.8</ele>
        <time>2013-03-31T07:23:12Z</time>
      </trkpt>
      <trkpt lat="50.05908" lon="2.18728">
        <ele>102.6</ele>
        <time>2013-03-31T07:23:24Z</time>
      </trkpt>
      <trkpt lat="50.05913" lon="2.1875">
        <ele>103.8</ele>
        <time>2013-03-31T07:23:37Z</time>
      </trkpt>
      <trkpt lat="50.05922" lon="2.18767">
        <ele>104.7</ele>
        <time>2013-03-31T07:23:48Z</time>
      </trkpt>
      <trkpt lat="50.05929" lon="2.18786">
        <ele>103.9</ele>
        <time>2013-03-31T07:23:58Z</time>
      </trkpt>
      <trkpt lat="50.05938" lon="2.18803">
        <ele>102.7</ele>
        <time>2013-03-31T07:24:08Z</time>
      </trkpt>
      <trkpt lat="50.05939" lon="2.18825">
        <ele>101.5</ele>
        <time>2013-03-31T07:24:20Z</time>
      </trkpt>
      <trkpt lat="50.05951" lon="2.18835">
        <ele>100.2</ele>
        <time>2013-03-31T07:24:32Z</time>
      </trkpt>
      <trkpt lat="50.05959" lon="2.18853">
        <ele>99.1</ele>
        <time>2013-03-31T07:24:41Z</time>
      </trkpt>
      <trkpt lat="50.05968" lon="2.18871">
        <ele>97.3</ele>
        <time>2013-03-31T07:24:55Z</time>
      </trkpt>
      <trkpt lat="50.05981" lon="2.18878">
        <ele>95.5</ele>
        <time>2013-03-31T07:25:05Z</time>
      </trkpt>
      <trkpt lat="50.05993" lon="2.1889">
        <ele>94.1</ele>
        <time>2013-03-31T07:25:16Z</time>
      </trkpt>
      <trkpt lat="50.06007" lon="2.189">
        <ele>94.5</ele>
        <time>2013-03-31T07:25:27Z</time>
      </trkpt>
      <trkpt lat="50.06015" lon="2.18917">
        <ele>94.9</ele>
        <time>2013-03-31T07:25:38Z</time>
      </trkpt>
      <trkpt lat="50.06018" lon="2.18938">
        <ele>97.5</ele>
        <time>2013-03-31T07:25:54Z</time>
      </trkpt>
      <trkpt lat="50.06023" lon="2.18959">
        <ele>94.7</ele>
        <time>2013-03-31T07:26:09Z</time>
      </trkpt>
      <trkpt lat="50.06036" lon="2.18971">
        <ele>93.1</ele>
        <time>2013-03-31T07:26:18Z</time>
      </trkpt>
      <trkpt lat="50.06049" lon="2.18983">
        <ele>92</ele>
        <time>2013-03-31T07:26:24Z</time>
      </trkpt>
      <trkpt lat="50.06062" lon="2.18992">
        <ele>103.1</ele>
        <time>2013-03-31T07:26:32Z</time>
      </trkpt>
      <trkpt lat="50.06073" lon="2.19007">
        <ele>102.6</ele>
        <time>2013-03-31T07:26:46Z</time>
      </trkpt>
      <trkpt lat="50.06084" lon="2.19022">
        <ele>97.9</ele>
        <time>2013-03-31T07:27:05Z</time>
      </trkpt>
      <trkpt lat="50.06093" lon="2.19037">
        <ele>96.5</ele>
        <time>2013-03-31T07:27:17Z</time>
      </trkpt>
      <trkpt lat="50.06108" lon="2.19047">
        <ele>95.1</ele>
        <time>2013-03-31T07:27:26Z</time>
      </trkpt>
      <trkpt lat="50.0612" lon="2.19057">
        <ele>94.4</ele>
        <time>2013-03-31T07:27:35Z</time>
      </trkpt>
      <trkpt lat="50.06132" lon="2.19067">
        <ele>93.7</ele>
        <time>2013-03-31T07:27:42Z</time>
      </trkpt>
      <trkpt lat="50.06146" lon="2.19071">
        <ele>93</ele>
        <time>2013-03-31T07:27:51Z</time>
      </trkpt>
      <trkpt lat="50.06158" lon="2.19081">
        <ele>94.9</ele>
        <time>2013-03-31T07:28:07Z</time>
      </trkpt>
      <trkpt lat="50.06172" lon="2.19085">
        <ele>96.3</ele>
        <time>2013-03-31T07:28:14Z</time>
      </trkpt>
      <trkpt lat="50.06184" lon="2.19094">
        <ele>99</ele>
        <time>2013-03-31T07:28:25Z</time>
      </trkpt>
      <trkpt lat="50.06198" lon="2.19093">
        <ele>99.5</ele>
        <time>2013-03-31T07:28:32Z</time>
      </trkpt>
      <trkpt lat="50.06211" lon="2.19101">
        <ele>98.2</ele>
        <time>2013-03-31T07:28:43Z</time>
      </trkpt>
      <trkpt lat="50.06225" lon="2.19107">
        <ele>97.4</ele>
        <time>2013-03-31T07:28:54Z</time>
      </trkpt>
      <trkpt lat="50.06239" lon="2.19107">
        <ele>99.6</ele>
        <time>2013-03-31T07:29:04Z</time>
      </trkpt>
      <trkpt lat="50.06253" lon="2.19111">
        <ele>101.7</ele>
        <time>2013-03-31T07:29:13Z</time>
      </trkpt>
      <trkpt lat="50.06267" lon="2.19117">
        <ele>104.2</ele>
        <time>2013-03-31T07:29:25Z</time>
      </trkpt>
      <trkpt lat="50.0628" lon="2.19124">
        <ele>105.7</ele>
        <time>2013-03-31T07:29:36Z</time>
      </trkpt>
      <trkpt lat="50.06294" lon="2.19127">
        <ele>106.5</ele>
        <time>2013-03-31T07:29:45Z</time>
      </trkpt>
      <trkpt lat="50.06308" lon="2.19126">
        <ele>106.8</ele>
        <time>2013-03-31T07:29:52Z</time>
      </trkpt>
      <trkpt lat="50.06322" lon="2.19126">
        <ele>106.1</ele>
        <time>2013-03-31T07:30:00Z</time>
      </trkpt>
      <trkpt lat="50.06335" lon="2.19135">
        <ele>105.3</ele>
        <time>2013-03-31T07:30:09Z</time>
      </trkpt>
      <trkpt lat="50.06348" lon="2.1914">
        <ele>105.8</ele>
        <time>2013-03-31T07:30:17Z</time>
      </trkpt>
      <trkpt lat="50.06361" lon="2.1914">
        <ele>107.8</ele>
        <time>2013-03-31T07:30:26Z</time>
      </trkpt>
      <trkpt lat="50.06375" lon="2.19145">
        <ele>109.7</ele>
        <time>2013-03-31T07:30:36Z</time>
      </trkpt>
      <trkpt lat="50.06388" lon="2.19155">
        <ele>111.9</ele>
        <time>2013-03-31T07:30:50Z</time>
      </trkpt>
      <trkpt lat="50.06405" lon="2.1916">
        <ele>112.4</ele>
        <time>2013-03-31T07:31:01Z</time>
      </trkpt>
      <trkpt lat="50.06419" lon="2.19164">
        <ele>109.3</ele>
        <time>2013-03-31T07:31:11Z</time>
      </trkpt>
      <trkpt lat="50.06432" lon="2.19171">
        <ele>106.6</ele>
        <time>2013-03-31T07:31:22Z</time>
      </trkpt>
      <trkpt lat="50.06443" lon="2.19172">
        <ele>107.9</ele>
        <time>2013-03-31T07:31:33Z</time>
      </trkpt>
      <trkpt lat="50.06453" lon="2.19185">
        <ele>109.3</ele>
        <time>2013-03-31T07:31:44Z</time>
      </trkpt>
      <trkpt lat="50.06466" lon="2.19192">
        <ele>111.9</ele>
        <time>2013-03-31T07:31:51Z</time>
      </trkpt>
      <trkpt lat="50.06479" lon="2.19187">
        <ele>113.3</ele>
        <time>2013-03-31T07:31:55Z</time>
      </trkpt>
      <trkpt lat="50.06494" lon="2.19188">
        <ele>116.3</ele>
        <time>2013-03-31T07:32:03Z</time>
      </trkpt>
      <trkpt lat="50.06508" lon="2.19195">
        <ele>118</ele>
        <time>2013-03-31T07:32:16Z</time>
      </trkpt>
      <trkpt lat="50.06522" lon="2.19201">
        <ele>119.1</ele>
        <time>2013-03-31T07:32:27Z</time>
      </trkpt>
      <trkpt lat="50.06537" lon="2.192">
        <ele>120</ele>
        <time>2013-03-31T07:32:35Z</time>
      </trkpt>
      <trkpt lat="50.06551" lon="2.19207">
        <ele>121.3</ele>
        <time>2013-03-31T07:32:47Z</time>
      </trkpt>
      <trkpt lat="50.06565" lon="2.19211">
        <ele>121.9</ele>
        <time>2013-03-31T07:32:56Z</time>
      </trkpt>
      <trkpt lat="50.06578" lon="2.19215">
        <ele>121.2</ele>
        <time>2013-03-31T07:33:04Z</time>
      </trkpt>
      <trkpt lat="50.06591" lon="2.19224">
        <ele>122.3</ele>
        <time>2013-03-31T07:33:13Z</time>
      </trkpt>
      <trkpt lat="50.06605" lon="2.1923">
        <ele>124.5</ele>
        <time>2013-03-31T07:33:23Z</time>
      </trkpt>
      <trkpt lat="50.06613" lon="2.1923">
        <ele>130.4</ele>
        <time>2013-03-31T07:33:33Z</time>
      </trkpt>
      <trkpt lat="50.06627" lon="2.19231">
        <ele>128.5</ele>
        <time>2013-03-31T07:33:48Z</time>
      </trkpt>
      <trkpt lat="50.0664" lon="2.19238">
        <ele>130.9</ele>
        <time>2013-03-31T07:33:56Z</time>
      </trkpt>
      <trkpt lat="50.06653" lon="2.19244">
        <ele>129.4</ele>
        <time>2013-03-31T07:34:05Z</time>
      </trkpt>
      <trkpt lat="50.06666" lon="2.19248">
        <ele>128</ele>
        <time>2013-03-31T07:34:15Z</time>
      </trkpt>
      <trkpt lat="50.0668" lon="2.19252">
        <ele>127.8</ele>
        <time>2013-03-31T07:34:25Z</time>
      </trkpt>
      <trkpt lat="50.06693" lon="2.19258">
        <ele>127.6</ele>
        <time>2013-03-31T07:34:36Z</time>
      </trkpt>
      <trkpt lat="50.06708" lon="2.1926">
        <ele>127.4</ele>
        <time>2013-03-31T07:34:45Z</time>
      </trkpt>
      <trkpt lat="50.06722" lon="2.19266">
        <ele>127.2</ele>
        <time>2013-03-31T07:34:55Z</time>
      </trkpt>
      <trkpt lat="50.06736" lon="2.19271">
        <ele>127</ele>
        <time>2013-03-31T07:35:06Z</time>
      </trkpt>
      <trkpt lat="50.0675" lon="2.19274">
        <ele>126.8</ele>
        <time>2013-03-31T07:35:15Z</time>
      </trkpt>
      <trkpt lat="50.06763" lon="2.19281">
        <ele>126.6</ele>
        <time>2013-03-31T07:35:24Z</time>
      </trkpt>
      <trkpt lat="50.06776" lon="2.19286">
        <ele>126.4</ele>
        <time>2013-03-31T07:35:38Z</time>
      </trkpt>
      <trkpt lat="50.0679" lon="2.19288">
        <ele>126.2</ele>
        <time>2013-03-31T07:35:48Z</time>
      </trkpt>
      <trkpt lat="50.06804" lon="2.19292">
        <ele>126</ele>
        <time>2013-03-31T07:35:57Z</time>
      </trkpt>
      <trkpt lat="50.06818" lon="2.19294">
        <ele>125.9</ele>
        <time>2013-03-31T07:36:04Z</time>
      </trkpt>
      <trkpt lat="50.0683" lon="2.19309">
        <ele>125.7</ele>
        <time>2013-03-31T07:36:11Z</time>
      </trkpt>
      <trkpt lat="50.06844" lon="2.19312">
        <ele>125.4</ele>
        <time>2013-03-31T07:36:29Z</time>
      </trkpt>
      <trkpt lat="50.06858" lon="2.19314">
        <ele>125.2</ele>
        <time>2013-03-31T07:36:38Z</time>
      </trkpt>
      <trkpt lat="50.06871" lon="2.19321">
        <ele>124.9</ele>
        <time>2013-03-31T07:36:50Z</time>
      </trkpt>
      <trkpt lat="50.06885" lon="2.1932">
        <ele>124.4</ele>
        <time>2013-03-31T07:36:57Z</time>
      </trkpt>
      <trkpt lat="50.06897" lon="2.19331">
        <ele>123.8</ele>
        <time>2013-03-31T07:37:07Z</time>
      </trkpt>
      <trkpt lat="50.06912" lon="2.19334">
        <ele>123</ele>
        <time>2013-03-31T07:37:20Z</time>
      </trkpt>
      <trkpt lat="50.06926" lon="2.19335">
        <ele>122.4</ele>
        <time>2013-03-31T07:37:31Z</time>
      </trkpt>
      <trkpt lat="50.06939" lon="2.19337">
        <ele>120.5</ele>
        <time>2013-03-31T07:37:42Z</time>
      </trkpt>
      <trkpt lat="50.06955" lon="2.19341">
        <ele>118</ele>
        <time>2013-03-31T07:37:51Z</time>
      </trkpt>
      <trkpt lat="50.06968" lon="2.19344">
        <ele>117</ele>
        <time>2013-03-31T07:38:00Z</time>
      </trkpt>
      <trkpt lat="50.06974" lon="2.19342">
        <ele>117</ele>
        <time>2013-03-31T07:38:05Z</time>
      </trkpt>
      <trkpt lat="50.06987" lon="2.19351">
        <ele>120.2</ele>
        <time>2013-03-31T07:38:20Z</time>
      </trkpt>
      <trkpt lat="50.07" lon="2.19355">
        <ele>121</ele>
        <time>2013-03-31T07:38:29Z</time>
      </trkpt>
      <trkpt lat="50.07014" lon="2.19359">
        <ele>121.9</ele>
        <time>2013-03-31T07:38:41Z</time>
      </trkpt>
      <trkpt lat="50.07028" lon="2.19365">
        <ele>122.8</ele>
        <time>2013-03-31T07:38:52Z</time>
      </trkpt>
      <trkpt lat="50.07041" lon="2.19374">
        <ele>124.8</ele>
        <time>2013-03-31T07:39:05Z</time>
      </trkpt>
      <trkpt lat="50.07056" lon="2.19374">
        <ele>125.2</ele>
        <time>2013-03-31T07:39:17Z</time>
      </trkpt>
      <trkpt lat="50.07071" lon="2.19372">
        <ele>127</ele>
        <time>2013-03-31T07:39:27Z</time>
      </trkpt>
      <trkpt lat="50.07084" lon="2.19372">
        <ele>126.8</ele>
        <time>2013-03-31T07:39:35Z</time>
      </trkpt>
      <trkpt lat="50.07097" lon="2.19362">
        <ele>126</ele>
        <time>2013-03-31T07:39:46Z</time>
      </trkpt>
      <trkpt lat="50.07111" lon="2.19352">
        <ele>125.2</ele>
        <time>2013-03-31T07:39:58Z</time>
      </trkpt>
      <trkpt lat="50.07123" lon="2.19339">
        <ele>124.5</ele>
        <time>2013-03-31T07:40:06Z</time>
      </trkpt>
      <trkpt lat="50.07131" lon="2.19319">
        <ele>123.9</ele>
        <time>2013-03-31T07:40:14Z</time>
      </trkpt>
      <trkpt lat="50.07142" lon="2.19304">
        <ele>123.3</ele>
        <time>2013-03-31T07:40:23Z</time>
      </trkpt>
      <trkpt lat="50.07153" lon="2.19294">
        <ele>122.3</ele>
        <time>2013-03-31T07:40:37Z</time>
      </trkpt>
      <trkpt lat="50.07164" lon="2.19279">
        <ele>121.2</ele>
        <time>2013-03-31T07:40:50Z</time>
      </trkpt>
      <trkpt lat="50.07174" lon="2.19264">
        <ele>120.4</ele>
        <time>2013-03-31T07:40:59Z</time>
      </trkpt>
      <trkpt lat="50.07188" lon="2.19257">
        <ele>122.2</ele>
        <time>2013-03-31T07:41:09Z</time>
      </trkpt>
      <trkpt lat="50.07199" lon="2.19242">
        <ele>125.6</ele>
        <time>2013-03-31T07:41:18Z</time>
      </trkpt>
      <trkpt lat="50.07211" lon="2.1923">
        <ele>125.6</ele>
        <time>2013-03-31T07:41:28Z</time>
      </trkpt>
      <trkpt lat="50.0722" lon="2.19213">
        <ele>125.1</ele>
        <time>2013-03-31T07:41:38Z</time>
      </trkpt>
      <trkpt lat="50.07234" lon="2.1921">
        <ele>124.6</ele>
        <time>2013-03-31T07:41:50Z</time>
      </trkpt>
      <trkpt lat="50.07243" lon="2.19193">
        <ele>124.1</ele>
        <time>2013-03-31T07:41:59Z</time>
      </trkpt>
      <trkpt lat="50.07255" lon="2.19182">
        <ele>123.6</ele>
        <time>2013-03-31T07:42:10Z</time>
      </trkpt>
      <trkpt lat="50.07267" lon="2.19169">
        <ele>123.1</ele>
        <time>2013-03-31T07:42:19Z</time>
      </trkpt>
      <trkpt lat="50.07279" lon="2.19158">
        <ele>122.7</ele>
        <time>2013-03-31T07:42:30Z</time>
      </trkpt>
      <trkpt lat="50.07292" lon="2.19149">
        <ele>122.1</ele>
        <time>2013-03-31T07:42:40Z</time>
      </trkpt>
      <trkpt lat="50.07306" lon="2.19141">
        <ele>124.4</ele>
        <time>2013-03-31T07:42:52Z</time>
      </trkpt>
      <trkpt lat="50.07316" lon="2.19126">
        <ele>125.7</ele>
        <time>2013-03-31T07:43:03Z</time>
      </trkpt>
      <trkpt lat="50.07328" lon="2.19115">
        <ele>126.6</ele>
        <time>2013-03-31T07:43:12Z</time>
      </trkpt>
      <trkpt lat="50.07341" lon="2.1911">
        <ele>127.8</ele>
        <time>2013-03-31T07:43:26Z</time>
      </trkpt>
      <trkpt lat="50.07355" lon="2.19107">
        <ele>130.3</ele>
        <time>2013-03-31T07:43:41Z</time>
      </trkpt>
      <trkpt lat="50.07369" lon="2.19107">
        <ele>134.2</ele>
        <time>2013-03-31T07:43:50Z</time>
      </trkpt>
      <trkpt lat="50.07382" lon="2.19101">
        <ele>135.3</ele>
        <time>2013-03-31T07:44:04Z</time>
      </trkpt>
      <trkpt lat="50.07392" lon="2.19104">
        <ele>136</ele>
        <time>2013-03-31T07:44:11Z</time>
      </trkpt>
      <trkpt lat="50.07402" lon="2.19121">
        <ele>136.4</ele>
        <time>2013-03-31T07:44:16Z</time>
      </trkpt>
      <trkpt lat="50.07413" lon="2.19109">
        <ele>136.1</ele>
        <time>2013-03-31T07:44:32Z</time>
      </trkpt>
      <trkpt lat="50.07425" lon="2.19097">
        <ele>134.8</ele>
        <time>2013-03-31T07:44:44Z</time>
      </trkpt>
      <trkpt lat="50.07439" lon="2.19095">
        <ele>134.3</ele>
        <time>2013-03-31T07:44:55Z</time>
      </trkpt>
      <trkpt lat="50.07452" lon="2.19088">
        <ele>133.9</ele>
        <time>2013-03-31T07:45:06Z</time>
      </trkpt>
      <trkpt lat="50.07465" lon="2.19082">
        <ele>133.5</ele>
        <time>2013-03-31T07:45:14Z</time>
      </trkpt>
      <trkpt lat="50.07479" lon="2.19078">
        <ele>132.9</ele>
        <time>2013-03-31T07:45:27Z</time>
      </trkpt>
      <trkpt lat="50.0751" lon="2.19099">
        <ele>133.6</ele>
        <time>2013-03-31T07:45:47Z</time>
      </trkpt>
      <trkpt lat="50.0751" lon="2.19099">
        <ele>133.6</ele>
        <time>2013-03-31T07:51:36Z</time>
      </trkpt>
      <trkpt lat="50.07528" lon="2.19117">
        <ele>134.7</ele>
        <time>2013-03-31T07:51:47Z</time>
      </trkpt>
      <trkpt lat="50.07534" lon="2.19136">
        <ele>135</ele>
        <time>2013-03-31T07:51:57Z</time>
      </trkpt>
      <trkpt lat="50.07541" lon="2.19157">
        <ele>135.3</ele>
        <time>2013-03-31T07:52:09Z</time>
      </trkpt>
      <trkpt lat="50.07551" lon="2.19172">
        <ele>135.5</ele>
        <time>2013-03-31T07:52:18Z</time>
      </trkpt>
      <trkpt lat="50.0756" lon="2.19188">
        <ele>135.8</ele>
        <time>2013-03-31T07:52:30Z</time>
      </trkpt>
      <trkpt lat="50.07571" lon="2.19204">
        <ele>136.1</ele>
        <time>2013-03-31T07:52:40Z</time>
      </trkpt>
      <trkpt lat="50.07586" lon="2.19204">
        <ele>136.2</ele>
        <time>2013-03-31T07:52:46Z</time>
      </trkpt>
      <trkpt lat="50.07603" lon="2.19205">
        <ele>136.4</ele>
        <time>2013-03-31T07:52:52Z</time>
      </trkpt>
      <trkpt lat="50.07604" lon="2.19215">
        <ele>136.5</ele>
        <time>2013-03-31T07:52:56Z</time>
      </trkpt>
      <trkpt lat="50.07607" lon="2.19216">
        <ele>136.5</ele>
        <time>2013-03-31T07:52:57Z</time>
      </trkpt>
      <trkpt lat="50.07604" lon="2.19237">
        <ele>136.7</ele>
        <time>2013-03-31T07:53:05Z</time>
      </trkpt>
      <trkpt lat="50.07615" lon="2.1925">
        <ele>137</ele>
        <time>2013-03-31T07:53:15Z</time>
      </trkpt>
      <trkpt lat="50.07618" lon="2.19272">
        <ele>137.2</ele>
        <time>2013-03-31T07:53:23Z</time>
      </trkpt>
      <trkpt lat="50.07622" lon="2.19292">
        <ele>137.4</ele>
        <time>2013-03-31T07:53:35Z</time>
      </trkpt>
      <trkpt lat="50.0763" lon="2.1931">
        <ele>137.7</ele>
        <time>2013-03-31T07:53:46Z</time>
      </trkpt>
      <trkpt lat="50.07639" lon="2.19328">
        <ele>138</ele>
        <time>2013-03-31T07:53:57Z</time>
      </trkpt>
      <trkpt lat="50.07648" lon="2.19346">
        <ele>137.4</ele>
        <time>2013-03-31T07:54:06Z</time>
      </trkpt>
      <trkpt lat="50.07656" lon="2.19365">
        <ele>136.7</ele>
        <time>2013-03-31T07:54:17Z</time>
      </trkpt>
      <trkpt lat="50.07664" lon="2.19383">
        <ele>136</ele>
        <time>2013-03-31T07:54:27Z</time>
      </trkpt>
      <trkpt lat="50.07671" lon="2.19403">
        <ele>135.3</ele>
        <time>2013-03-31T07:54:39Z</time>
      </trkpt>
      <trkpt lat="50.07674" lon="2.19424">
        <ele>134.3</ele>
        <time>2013-03-31T07:54:50Z</time>
      </trkpt>
      <trkpt lat="50.07681" lon="2.19444">
        <ele>133.2</ele>
        <time>2013-03-31T07:55:00Z</time>
      </trkpt>
      <trkpt lat="50.07689" lon="2.19462">
        <ele>132.2</ele>
        <time>2013-03-31T07:55:09Z</time>
      </trkpt>
      <trkpt lat="50.07695" lon="2.19483">
        <ele>132.9</ele>
        <time>2013-03-31T07:55:17Z</time>
      </trkpt>
      <trkpt lat="50.07701" lon="2.19501">
        <ele>134.1</ele>
        <time>2013-03-31T07:55:28Z</time>
      </trkpt>
      <trkpt lat="50.07713" lon="2.19518">
        <ele>135</ele>
        <time>2013-03-31T07:55:35Z</time>
      </trkpt>
      <trkpt lat="50.07713" lon="2.19539">
        <ele>136.5</ele>
        <time>2013-03-31T07:55:48Z</time>
      </trkpt>
      <trkpt lat="50.07717" lon="2.1956">
        <ele>137.8</ele>
        <time>2013-03-31T07:56:00Z</time>
      </trkpt>
      <trkpt lat="50.07727" lon="2.19578">
        <ele>138.7</ele>
        <time>2013-03-31T07:56:08Z</time>
      </trkpt>
      <trkpt lat="50.07736" lon="2.19594">
        <ele>139.3</ele>
        <time>2013-03-31T07:56:19Z</time>
      </trkpt>
      <trkpt lat="50.07736" lon="2.19616">
        <ele>140</ele>
        <time>2013-03-31T07:56:31Z</time>
      </trkpt>
      <trkpt lat="50.07743" lon="2.19636">
        <ele>140.7</ele>
        <time>2013-03-31T07:56:40Z</time>
      </trkpt>
      <trkpt lat="50.07749" lon="2.19654">
        <ele>141.7</ele>
        <time>2013-03-31T07:56:48Z</time>
      </trkpt>
      <trkpt lat="50.07756" lon="2.19675">
        <ele>142.9</ele>
        <time>2013-03-31T07:57:01Z</time>
      </trkpt>
      <trkpt lat="50.07763" lon="2.19694">
        <ele>142.4</ele>
        <time>2013-03-31T07:57:12Z</time>
      </trkpt>
      <trkpt lat="50.0777" lon="2.19711">
        <ele>141.8</ele>
        <time>2013-03-31T07:57:24Z</time>
      </trkpt>
      <trkpt lat="50.07782" lon="2.19723">
        <ele>141.5</ele>
        <time>2013-03-31T07:57:31Z</time>
      </trkpt>
      <trkpt lat="50.0778" lon="2.19747">
        <ele>140.9</ele>
        <time>2013-03-31T07:57:43Z</time>
      </trkpt>
      <trkpt lat="50.07782" lon="2.19771">
        <ele>140.5</ele>
        <time>2013-03-31T07:57:51Z</time>
      </trkpt>
      <trkpt lat="50.07783" lon="2.19792">
        <ele>140</ele>
        <time>2013-03-31T07:58:01Z</time>
      </trkpt>
      <trkpt lat="50.07793" lon="2.19808">
        <ele>139.1</ele>
        <time>2013-03-31T07:58:08Z</time>
      </trkpt>
      <trkpt lat="50.07795" lon="2.19829">
        <ele>138.2</ele>
        <time>2013-03-31T07:58:15Z</time>
      </trkpt>
      <trkpt lat="50.07797" lon="2.1985">
        <ele>136.8</ele>
        <time>2013-03-31T07:58:27Z</time>
      </trkpt>
      <trkpt lat="50.07811" lon="2.19852">
        <ele>136.1</ele>
        <time>2013-03-31T07:58:33Z</time>
      </trkpt>
      <trkpt lat="50.07825" lon="2.19848">
        <ele>135.9</ele>
        <time>2013-03-31T07:58:40Z</time>
      </trkpt>
      <trkpt lat="50.07838" lon="2.19843">
        <ele>135.5</ele>
        <time>2013-03-31T07:58:47Z</time>
      </trkpt>
      <trkpt lat="50.07852" lon="2.19846">
        <ele>134.9</ele>
        <time>2013-03-31T07:58:56Z</time>
      </trkpt>
      <trkpt lat="50.07857" lon="2.19866">
        <ele>132.7</ele>
        <time>2013-03-31T07:59:11Z</time>
      </trkpt>
      <trkpt lat="50.07853" lon="2.19889">
        <ele>132.5</ele>
        <time>2013-03-31T07:59:24Z</time>
      </trkpt>
      <trkpt lat="50.07853" lon="2.19911">
        <ele>133.2</ele>
        <time>2013-03-31T07:59:33Z</time>
      </trkpt>
      <trkpt lat="50.07848" lon="2.19931">
        <ele>133.9</ele>
        <time>2013-03-31T07:59:44Z</time>
      </trkpt>
      <trkpt lat="50.07845" lon="2.19953">
        <ele>134.8</ele>
        <time>2013-03-31T07:59:57Z</time>
      </trkpt>
      <trkpt lat="50.07841" lon="2.19975">
        <ele>135.5</ele>
        <time>2013-03-31T08:00:07Z</time>
      </trkpt>
      <trkpt lat="50.07837" lon="2.19997">
        <ele>136.4</ele>
        <time>2013-03-31T08:00:21Z</time>
      </trkpt>
      <trkpt lat="50.0784" lon="2.20019">
        <ele>136.9</ele>
        <time>2013-03-31T08:00:30Z</time>
      </trkpt>
      <trkpt lat="50.07833" lon="2.20039">
        <ele>137.5</ele>
        <time>2013-03-31T08:00:39Z</time>
      </trkpt>
      <trkpt lat="50.07824" lon="2.2006">
        <ele>138.1</ele>
        <time>2013-03-31T08:00:49Z</time>
      </trkpt>
      <trkpt lat="50.07819" lon="2.2008">
        <ele>138.7</ele>
        <time>2013-03-31T08:00:59Z</time>
      </trkpt>
      <trkpt lat="50.07818" lon="2.20102">
        <ele>140.8</ele>
        <time>2013-03-31T08:01:12Z</time>
      </trkpt>
      <trkpt lat="50.07813" lon="2.20122">
        <ele>143.2</ele>
        <time>2013-03-31T08:01:23Z</time>
      </trkpt>
      <trkpt lat="50.07812" lon="2.20144">
        <ele>145.2</ele>
        <time>2013-03-31T08:01:33Z</time>
      </trkpt>
      <trkpt lat="50.07808" lon="2.20167">
        <ele>146</ele>
        <time>2013-03-31T08:01:43Z</time>
      </trkpt>
      <trkpt lat="50.07806" lon="2.20187">
        <ele>146.5</ele>
        <time>2013-03-31T08:01:50Z</time>
      </trkpt>
      <trkpt lat="50.07801" lon="2.2021">
        <ele>147.6</ele>
        <time>2013-03-31T08:02:04Z</time>
      </trkpt>
      <trkpt lat="50.07797" lon="2.20232">
        <ele>145.9</ele>
        <time>2013-03-31T08:02:17Z</time>
      </trkpt>
      <trkpt lat="50.07793" lon="2.20254">
        <ele>145.6</ele>
        <time>2013-03-31T08:02:28Z</time>
      </trkpt>
      <trkpt lat="50.07789" lon="2.20276">
        <ele>145.2</ele>
        <time>2013-03-31T08:02:39Z</time>
      </trkpt>
      <trkpt lat="50.07782" lon="2.20294">
        <ele>144.9</ele>
        <time>2013-03-31T08:02:47Z</time>
      </trkpt>
      <trkpt lat="50.0778" lon="2.20316">
        <ele>144.6</ele>
        <time>2013-03-31T08:02:59Z</time>
      </trkpt>
      <trkpt lat="50.07776" lon="2.20337">
        <ele>144.3</ele>
        <time>2013-03-31T08:03:08Z</time>
      </trkpt>
      <trkpt lat="50.07775" lon="2.20358">
        <ele>144</ele>
        <time>2013-03-31T08:03:17Z</time>
      </trkpt>
      <trkpt lat="50.07771" lon="2.20379">
        <ele>143.7</ele>
        <time>2013-03-31T08:03:26Z</time>
      </trkpt>
      <trkpt lat="50.0777" lon="2.20403">
        <ele>143.4</ele>
        <time>2013-03-31T08:03:35Z</time>
      </trkpt>
      <trkpt lat="50.07763" lon="2.20422">
        <ele>143.1</ele>
        <time>2013-03-31T08:03:47Z</time>
      </trkpt>
      <trkpt lat="50.07761" lon="2.20444">
        <ele>142.2</ele>
        <time>2013-03-31T08:04:00Z</time>
      </trkpt>
      <trkpt lat="50.07754" lon="2.20464">
        <ele>141.5</ele>
        <time>2013-03-31T08:04:09Z</time>
      </trkpt>
      <trkpt lat="50.0775" lon="2.20484">
        <ele>140.8</ele>
        <time>2013-03-31T08:04:19Z</time>
      </trkpt>
      <trkpt lat="50.07748" lon="2.20506">
        <ele>140.1</ele>
        <time>2013-03-31T08:04:28Z</time>
      </trkpt>
      <trkpt lat="50.07749" lon="2.20528">
        <ele>139.2</ele>
        <time>2013-03-31T08:04:40Z</time>
      </trkpt>
      <trkpt lat="50.07754" lon="2.2055">
        <ele>136.5</ele>
        <time>2013-03-31T08:04:53Z</time>
      </trkpt>
      <trkpt lat="50.07754" lon="2.2055">
        <ele>136.5</ele>
        <time>2013-03-31T08:07:26Z</time>
      </trkpt>
      <trkpt lat="50.07775" lon="2.20548">
        <ele>128.7</ele>
        <time>2013-03-31T08:07:30Z</time>
      </trkpt>
      <trkpt lat="50.07775" lon="2.20548">
        <ele>128.7</ele>
        <time>2013-03-31T08:08:03Z</time>
      </trkpt>
      <trkpt lat="50.07788" lon="2.20546">
        <ele>122.3</ele>
        <time>2013-03-31T08:08:25Z</time>
      </trkpt>
      <trkpt lat="50.07801" lon="2.20537">
        <ele>122</ele>
        <time>2013-03-31T08:08:52Z</time>
      </trkpt>
      <trkpt lat="50.07813" lon="2.20525">
        <ele>120.6</ele>
        <time>2013-03-31T08:09:15Z</time>
      </trkpt>
      <trkpt lat="50.07825" lon="2.20512">
        <ele>121.5</ele>
        <time>2013-03-31T08:09:33Z</time>
      </trkpt>
      <trkpt lat="50.07838" lon="2.20507">
        <ele>122.5</ele>
        <time>2013-03-31T08:09:51Z</time>
      </trkpt>
      <trkpt lat="50.07849" lon="2.20495">
        <ele>122.2</ele>
        <time>2013-03-31T08:10:04Z</time>
      </trkpt>
      <trkpt lat="50.07862" lon="2.20487">
        <ele>121.8</ele>
        <time>2013-03-31T08:10:17Z</time>
      </trkpt>
      <trkpt lat="50.07876" lon="2.20482">
        <ele>124.5</ele>
        <time>2013-03-31T08:10:28Z</time>
      </trkpt>
      <trkpt lat="50.0789" lon="2.20478">
        <ele>125.5</ele>
        <time>2013-03-31T08:10:36Z</time>
      </trkpt>
      <trkpt lat="50.07893" lon="2.205">
        <ele>127</ele>
        <time>2013-03-31T08:10:51Z</time>
      </trkpt>
      <trkpt lat="50.07891" lon="2.20522">
        <ele>128.1</ele>
        <time>2013-03-31T08:11:01Z</time>
      </trkpt>
      <trkpt lat="50.07888" lon="2.20544">
        <ele>129.4</ele>
        <time>2013-03-31T08:11:13Z</time>
      </trkpt>
      <trkpt lat="50.07887" lon="2.20565">
        <ele>129</ele>
        <time>2013-03-31T08:11:24Z</time>
      </trkpt>
      <trkpt lat="50.07884" lon="2.20586">
        <ele>129.5</ele>
        <time>2013-03-31T08:11:34Z</time>
      </trkpt>
      <trkpt lat="50.07885" lon="2.20608">
        <ele>129.9</ele>
        <time>2013-03-31T08:11:43Z</time>
      </trkpt>
      <trkpt lat="50.0788" lon="2.20629">
        <ele>130.2</ele>
        <time>2013-03-31T08:11:50Z</time>
      </trkpt>
      <trkpt lat="50.07877" lon="2.20651">
        <ele>130.7</ele>
        <time>2013-03-31T08:12:00Z</time>
      </trkpt>
      <trkpt lat="50.07875" lon="2.20672">
        <ele>131.2</ele>
        <time>2013-03-31T08:12:11Z</time>
      </trkpt>
      <trkpt lat="50.07878" lon="2.20694">
        <ele>131.8</ele>
        <time>2013-03-31T08:12:24Z</time>
      </trkpt>
      <trkpt lat="50.07873" lon="2.20714">
        <ele>132.5</ele>
        <time>2013-03-31T08:12:33Z</time>
      </trkpt>
      <trkpt lat="50.0787" lon="2.20736">
        <ele>133.2</ele>
        <time>2013-03-31T08:12:41Z</time>
      </trkpt>
      <trkpt lat="50.07868" lon="2.20758">
        <ele>134.2</ele>
        <time>2013-03-31T08:12:52Z</time>
      </trkpt>
      <trkpt lat="50.07865" lon="2.20779">
        <ele>135.3</ele>
        <time>2013-03-31T08:13:04Z</time>
      </trkpt>
      <trkpt lat="50.07865" lon="2.20801">
        <ele>136.3</ele>
        <time>2013-03-31T08:13:15Z</time>
      </trkpt>
      <trkpt lat="50.07867" lon="2.20824">
        <ele>138.1</ele>
        <time>2013-03-31T08:13:25Z</time>
      </trkpt>
      <trkpt lat="50.07869" lon="2.20847">
        <ele>141.5</ele>
        <time>2013-03-31T08:13:35Z</time>
      </trkpt>
      <trkpt lat="50.07874" lon="2.20866">
        <ele>141.5</ele>
        <time>2013-03-31T08:13:45Z</time>
      </trkpt>
      <trkpt lat="50.0787" lon="2.20886">
        <ele>141.5</ele>
        <time>2013-03-31T08:13:56Z</time>
      </trkpt>
      <trkpt lat="50.0787" lon="2.20909">
        <ele>139.5</ele>
        <time>2013-03-31T08:14:08Z</time>
      </trkpt>
      <trkpt lat="50.07865" lon="2.2093">
        <ele>137.9</ele>
        <time>2013-03-31T08:14:18Z</time>
      </trkpt>
      <trkpt lat="50.07864" lon="2.20951">
        <ele>137.6</ele>
        <time>2013-03-31T08:14:28Z</time>
      </trkpt>
      <trkpt lat="50.07861" lon="2.20973">
        <ele>137.3</ele>
        <time>2013-03-31T08:14:39Z</time>
      </trkpt>
      <trkpt lat="50.07863" lon="2.20996">
        <ele>137</ele>
        <time>2013-03-31T08:14:49Z</time>
      </trkpt>
      <trkpt lat="50.07861" lon="2.21017">
        <ele>136.7</ele>
        <time>2013-03-31T08:14:59Z</time>
      </trkpt>
      <trkpt lat="50.07862" lon="2.21039">
        <ele>136.4</ele>
        <time>2013-03-31T08:15:10Z</time>
      </trkpt>
      <trkpt lat="50.07866" lon="2.21059">
        <ele>136.1</ele>
        <time>2013-03-31T08:15:17Z</time>
      </trkpt>
      <trkpt lat="50.07865" lon="2.21082">
        <ele>135.9</ele>
        <time>2013-03-31T08:15:27Z</time>
      </trkpt>
      <trkpt lat="50.07863" lon="2.21104">
        <ele>135.6</ele>
        <time>2013-03-31T08:15:37Z</time>
      </trkpt>
      <trkpt lat="50.07862" lon="2.21125">
        <ele>135.2</ele>
        <time>2013-03-31T08:15:49Z</time>
      </trkpt>
      <trkpt lat="50.07866" lon="2.21148">
        <ele>135.6</ele>
        <time>2013-03-31T08:16:00Z</time>
      </trkpt>
      <trkpt lat="50.07867" lon="2.2117">
        <ele>137</ele>
        <time>2013-03-31T08:16:10Z</time>
      </trkpt>
      <trkpt lat="50.07869" lon="2.21192">
        <ele>138.6</ele>
        <time>2013-03-31T08:16:21Z</time>
      </trkpt>
      <trkpt lat="50.07876" lon="2.21212">
        <ele>138.7</ele>
        <time>2013-03-31T08:16:32Z</time>
      </trkpt>
      <trkpt lat="50.07873" lon="2.21234">
        <ele>138.2</ele>
        <time>2013-03-31T08:16:42Z</time>
      </trkpt>
      <trkpt lat="50.07878" lon="2.21255">
        <ele>137.9</ele>
        <time>2013-03-31T08:16:50Z</time>
      </trkpt>
      <trkpt lat="50.07876" lon="2.21277">
        <ele>137.4</ele>
        <time>2013-03-31T08:17:02Z</time>
      </trkpt>
      <trkpt lat="50.07872" lon="2.21297">
        <ele>136.9</ele>
        <time>2013-03-31T08:17:14Z</time>
      </trkpt>
      <trkpt lat="50.07868" lon="2.2132">
        <ele>136.4</ele>
        <time>2013-03-31T08:17:26Z</time>
      </trkpt>
      <trkpt lat="50.07867" lon="2.21341">
        <ele>136</ele>
        <time>2013-03-31T08:17:36Z</time>
      </trkpt>
      <trkpt lat="50.07866" lon="2.21362">
        <ele>134</ele>
        <time>2013-03-31T08:17:50Z</time>
      </trkpt>
      <trkpt lat="50.07864" lon="2.21383">
        <ele>132.9</ele>
        <time>2013-03-31T08:18:01Z</time>
      </trkpt>
      <trkpt lat="50.07855" lon="2.21402">
        <ele>132.5</ele>
        <time>2013-03-31T08:18:12Z</time>
      </trkpt>
      <trkpt lat="50.07848" lon="2.2142">
        <ele>132.1</ele>
        <time>2013-03-31T08:18:22Z</time>
      </trkpt>
      <trkpt lat="50.07838" lon="2.21436">
        <ele>131.7</ele>
        <time>2013-03-31T08:18:33Z</time>
      </trkpt>
      <trkpt lat="50.07831" lon="2.21455">
        <ele>131.3</ele>
        <time>2013-03-31T08:18:43Z</time>
      </trkpt>
      <trkpt lat="50.07822" lon="2.21471">
        <ele>130.9</ele>
        <time>2013-03-31T08:18:55Z</time>
      </trkpt>
      <trkpt lat="50.07812" lon="2.21486">
        <ele>130.5</ele>
        <time>2013-03-31T08:19:05Z</time>
      </trkpt>
      <trkpt lat="50.07801" lon="2.215">
        <ele>130.1</ele>
        <time>2013-03-31T08:19:17Z</time>
      </trkpt>
      <trkpt lat="50.07793" lon="2.21519">
        <ele>129.3</ele>
        <time>2013-03-31T08:19:28Z</time>
      </trkpt>
      <trkpt lat="50.07783" lon="2.21534">
        <ele>128.5</ele>
        <time>2013-03-31T08:19:37Z</time>
      </trkpt>
      <trkpt lat="50.07775" lon="2.21553">
        <ele>127.8</ele>
        <time>2013-03-31T08:19:45Z</time>
      </trkpt>
      <trkpt lat="50.07763" lon="2.21567">
        <ele>127</ele>
        <time>2013-03-31T08:19:56Z</time>
      </trkpt>
      <trkpt lat="50.07755" lon="2.21586">
        <ele>126.7</ele>
        <time>2013-03-31T08:20:08Z</time>
      </trkpt>
      <trkpt lat="50.07747" lon="2.21605">
        <ele>126.4</ele>
        <time>2013-03-31T08:20:19Z</time>
      </trkpt>
      <trkpt lat="50.07739" lon="2.21621">
        <ele>126</ele>
        <time>2013-03-31T08:20:30Z</time>
      </trkpt>
      <trkpt lat="50.0773" lon="2.21639">
        <ele>125.7</ele>
        <time>2013-03-31T08:20:42Z</time>
      </trkpt>
      <trkpt lat="50.07722" lon="2.21657">
        <ele>125.3</ele>
        <time>2013-03-31T08:20:53Z</time>
      </trkpt>
      <trkpt lat="50.07713" lon="2.21674">
        <ele>125.1</ele>
        <time>2013-03-31T08:21:02Z</time>
      </trkpt>
      <trkpt lat="50.07706" lon="2.21693">
        <ele>124.8</ele>
        <time>2013-03-31T08:21:11Z</time>
      </trkpt>
      <trkpt lat="50.077" lon="2.21712">
        <ele>124.4</ele>
        <time>2013-03-31T08:21:22Z</time>
      </trkpt>
      <trkpt lat="50.07695" lon="2.21733">
        <ele>124.1</ele>
        <time>2013-03-31T08:21:32Z</time>
      </trkpt>
      <trkpt lat="50.07687" lon="2.21751">
        <ele>122.4</ele>
        <time>2013-03-31T08:21:43Z</time>
      </trkpt>
      <trkpt lat="50.07677" lon="2.21768">
        <ele>119.6</ele>
        <time>2013-03-31T08:21:54Z</time>
      </trkpt>
      <trkpt lat="50.07669" lon="2.21785">
        <ele>117.3</ele>
        <time>2013-03-31T08:22:03Z</time>
      </trkpt>
      <trkpt lat="50.07665" lon="2.21806">
        <ele>118.1</ele>
        <time>2013-03-31T08:22:14Z</time>
      </trkpt>
      <trkpt lat="50.07659" lon="2.21827">
        <ele>118.8</ele>
        <time>2013-03-31T08:22:23Z</time>
      </trkpt>
      <trkpt lat="50.07651" lon="2.21844">
        <ele>118.5</ele>
        <time>2013-03-31T08:22:33Z</time>
      </trkpt>
      <trkpt lat="50.07646" lon="2.21866">
        <ele>117.9</ele>
        <time>2013-03-31T08:22:43Z</time>
      </trkpt>
      <trkpt lat="50.07642" lon="2.21888">
        <ele>117.2</ele>
        <time>2013-03-31T08:22:53Z</time>
      </trkpt>
      <trkpt lat="50.07637" lon="2.21909">
        <ele>116.4</ele>
        <time>2013-03-31T08:23:05Z</time>
      </trkpt>
      <trkpt lat="50.07635" lon="2.21931">
        <ele>115.7</ele>
        <time>2013-03-31T08:23:16Z</time>
      </trkpt>
      <trkpt lat="50.07636" lon="2.21953">
        <ele>115.1</ele>
        <time>2013-03-31T08:23:26Z</time>
      </trkpt>
      <trkpt lat="50.07635" lon="2.21976">
        <ele>114.5</ele>
        <time>2013-03-31T08:23:34Z</time>
      </trkpt>
      <trkpt lat="50.07635" lon="2.21998">
        <ele>114.1</ele>
        <time>2013-03-31T08:23:41Z</time>
      </trkpt>
      <trkpt lat="50.07634" lon="2.22021">
        <ele>113.4</ele>
        <time>2013-03-31T08:23:52Z</time>
      </trkpt>
      <trkpt lat="50.0764" lon="2.22042">
        <ele>112.9</ele>
        <time>2013-03-31T08:24:01Z</time>
      </trkpt>
      <trkpt lat="50.07646" lon="2.22063">
        <ele>112.1</ele>
        <time>2013-03-31T08:24:14Z</time>
      </trkpt>
      <trkpt lat="50.0765" lon="2.22083">
        <ele>111.4</ele>
        <time>2013-03-31T08:24:26Z</time>
      </trkpt>
      <trkpt lat="50.07657" lon="2.22102">
        <ele>110.6</ele>
        <time>2013-03-31T08:24:36Z</time>
      </trkpt>
      <trkpt lat="50.07664" lon="2.22121">
        <ele>109.8</ele>
        <time>2013-03-31T08:24:44Z</time>
      </trkpt>
      <trkpt lat="50.07669" lon="2.22142">
        <ele>108.7</ele>
        <time>2013-03-31T08:24:55Z</time>
      </trkpt>
      <trkpt lat="50.07673" lon="2.22163">
        <ele>107.4</ele>
        <time>2013-03-31T08:25:07Z</time>
      </trkpt>
      <trkpt lat="50.07681" lon="2.2218">
        <ele>106.2</ele>
        <time>2013-03-31T08:25:19Z</time>
      </trkpt>
      <trkpt lat="50.07685" lon="2.22201">
        <ele>106</ele>
        <time>2013-03-31T08:25:33Z</time>
      </trkpt>
      <trkpt lat="50.07688" lon="2.22223">
        <ele>105.6</ele>
        <time>2013-03-31T08:25:48Z</time>
      </trkpt>
      <trkpt lat="50.0769" lon="2.22255">
        <ele>105</ele>
        <time>2013-03-31T08:26:06Z</time>
      </trkpt>
      <trkpt lat="50.07688" lon="2.22276">
        <ele>104.8</ele>
        <time>2013-03-31T08:26:13Z</time>
      </trkpt>
      <trkpt lat="50.07687" lon="2.22298">
        <ele>104.6</ele>
        <time>2013-03-31T08:26:19Z</time>
      </trkpt>
      <trkpt lat="50.07696" lon="2.22313">
        <ele>104.5</ele>
        <time>2013-03-31T08:26:25Z</time>
      </trkpt>
      <trkpt lat="50.07699" lon="2.22335">
        <ele>104.1</ele>
        <time>2013-03-31T08:26:36Z</time>
      </trkpt>
      <trkpt lat="50.07698" lon="2.22358">
        <ele>103.9</ele>
        <time>2013-03-31T08:26:45Z</time>
      </trkpt>
      <trkpt lat="50.07692" lon="2.22378">
        <ele>103.6</ele>
        <time>2013-03-31T08:26:53Z</time>
      </trkpt>
      <trkpt lat="50.0769" lon="2.22382">
        <ele>103.5</ele>
        <time>2013-03-31T08:26:56Z</time>
      </trkpt>
      <trkpt lat="50.07702" lon="2.22391">
        <ele>103.3</ele>
        <time>2013-03-31T08:27:04Z</time>
      </trkpt>
      <trkpt lat="50.07713" lon="2.22408">
        <ele>103.1</ele>
        <time>2013-03-31T08:27:12Z</time>
      </trkpt>
      <trkpt lat="50.07725" lon="2.22424">
        <ele>102.8</ele>
        <time>2013-03-31T08:27:17Z</time>
      </trkpt>
      <trkpt lat="50.07739" lon="2.22438">
        <ele>102.5</ele>
        <time>2013-03-31T08:27:25Z</time>
      </trkpt>
      <trkpt lat="50.07745" lon="2.22447">
        <ele>102.4</ele>
        <time>2013-03-31T08:27:29Z</time>
      </trkpt>
      <trkpt lat="50.0776" lon="2.22451">
        <ele>102.1</ele>
        <time>2013-03-31T08:27:35Z</time>
      </trkpt>
      <trkpt lat="50.07767" lon="2.2246">
        <ele>101.7</ele>
        <time>2013-03-31T08:27:45Z</time>
      </trkpt>
      <trkpt lat="50.07746" lon="2.22487">
        <ele>101.4</ele>
        <time>2013-03-31T08:27:52Z</time>
      </trkpt>
      <trkpt lat="50.07745" lon="2.22505">
        <ele>100.9</ele>
        <time>2013-03-31T08:28:05Z</time>
      </trkpt>
      <trkpt lat="50.07759" lon="2.22508">
        <ele>100.6</ele>
        <time>2013-03-31T08:28:13Z</time>
      </trkpt>
      <trkpt lat="50.07782" lon="2.22502">
        <ele>100.5</ele>
        <time>2013-03-31T08:28:16Z</time>
      </trkpt>
      <trkpt lat="50.07789" lon="2.22501">
        <ele>100.1</ele>
        <time>2013-03-31T08:28:24Z</time>
      </trkpt>
      <trkpt lat="50.07804" lon="2.22509">
        <ele>98.6</ele>
        <time>2013-03-31T08:28:32Z</time>
      </trkpt>
      <trkpt lat="50.07793" lon="2.2252">
        <ele>86.6</ele>
        <time>2013-03-31T08:28:51Z</time>
      </trkpt>
      <trkpt lat="50.07793" lon="2.2252">
        <ele>86.6</ele>
        <time>2013-03-31T08:29:27Z</time>
      </trkpt>
      <trkpt lat="50.07797" lon="2.22534">
        <ele>78.9</ele>
        <time>2013-03-31T08:29:28Z</time>
      </trkpt>
      <trkpt lat="50.07803" lon="2.22554">
        <ele>78.5</ele>
        <time>2013-03-31T08:29:41Z</time>
      </trkpt>
      <trkpt lat="50.07798" lon="2.22566">
        <ele>79.8</ele>
        <time>2013-03-31T08:30:02Z</time>
      </trkpt>
      <trkpt lat="50.07802" lon="2.22582">
        <ele>78.5</ele>
        <time>2013-03-31T08:30:12Z</time>
      </trkpt>
      <trkpt lat="50.07789" lon="2.2259">
        <ele>75.6</ele>
        <time>2013-03-31T08:30:26Z</time>
      </trkpt>
      <trkpt lat="50.07786" lon="2.22596">
        <ele>74.7</ele>
        <time>2013-03-31T08:30:34Z</time>
      </trkpt>
      <trkpt lat="50.07784" lon="2.22609">
        <ele>70.2</ele>
        <time>2013-03-31T08:30:51Z</time>
      </trkpt>
      <trkpt lat="50.0777" lon="2.22612">
        <ele>62.7</ele>
        <time>2013-03-31T08:31:04Z</time>
      </trkpt>
      <trkpt lat="50.07765" lon="2.22631">
        <ele>65.7</ele>
        <time>2013-03-31T08:31:22Z</time>
      </trkpt>
      <trkpt lat="50.07776" lon="2.22646">
        <ele>67</ele>
        <time>2013-03-31T08:31:28Z</time>
      </trkpt>
      <trkpt lat="50.07785" lon="2.22614">
        <ele>71.9</ele>
        <time>2013-03-31T08:31:52Z</time>
      </trkpt>
      <trkpt lat="50.07785" lon="2.22614">
        <ele>71.9</ele>
        <time>2013-03-31T08:32:31Z</time>
      </trkpt>
      <trkpt lat="50.07784" lon="2.22598">
        <ele>69.3</ele>
        <time>2013-03-31T08:32:32Z</time>
      </trkpt>
      <trkpt lat="50.0777" lon="2.22602">
        <ele>67</ele>
        <time>2013-03-31T08:32:41Z</time>
      </trkpt>
      <trkpt lat="50.07761" lon="2.22613">
        <ele>69.5</ele>
        <time>2013-03-31T08:32:51Z</time>
      </trkpt>
      <trkpt lat="50.07767" lon="2.22632">
        <ele>72.9</ele>
        <time>2013-03-31T08:33:01Z</time>
      </trkpt>
      <trkpt lat="50.0777" lon="2.22639">
        <ele>74.8</ele>
        <time>2013-03-31T08:33:07Z</time>
      </trkpt>
      <trkpt lat="50.07775" lon="2.22641">
        <ele>76.4</ele>
        <time>2013-03-31T08:33:13Z</time>
      </trkpt>
      <trkpt lat="50.07785" lon="2.22657">
        <ele>74</ele>
        <time>2013-03-31T08:33:20Z</time>
      </trkpt>
      <trkpt lat="50.07776" lon="2.22674">
        <ele>74.7</ele>
        <time>2013-03-31T08:33:40Z</time>
      </trkpt>
      <trkpt lat="50.07764" lon="2.22688">
        <ele>75</ele>
        <time>2013-03-31T08:33:49Z</time>
      </trkpt>
      <trkpt lat="50.07761" lon="2.2271">
        <ele>75.3</ele>
        <time>2013-03-31T08:33:59Z</time>
      </trkpt>
      <trkpt lat="50.07757" lon="2.22727">
        <ele>75.6</ele>
        <time>2013-03-31T08:34:08Z</time>
      </trkpt>
      <trkpt lat="50.07759" lon="2.22748">
        <ele>75.9</ele>
        <time>2013-03-31T08:34:19Z</time>
      </trkpt>
      <trkpt lat="50.07756" lon="2.2277">
        <ele>76.3</ele>
        <time>2013-03-31T08:34:29Z</time>
      </trkpt>
      <trkpt lat="50.07751" lon="2.2279">
        <ele>76.6</ele>
        <time>2013-03-31T08:34:40Z</time>
      </trkpt>
      <trkpt lat="50.0774" lon="2.22807">
        <ele>76.6</ele>
        <time>2013-03-31T08:34:52Z</time>
      </trkpt>
      <trkpt lat="50.07741" lon="2.2283">
        <ele>73.4</ele>
        <time>2013-03-31T08:35:02Z</time>
      </trkpt>
      <trkpt lat="50.07741" lon="2.22852">
        <ele>71</ele>
        <time>2013-03-31T08:35:11Z</time>
      </trkpt>
      <trkpt lat="50.07748" lon="2.2287">
        <ele>67.8</ele>
        <time>2013-03-31T08:35:25Z</time>
      </trkpt>
      <trkpt lat="50.07761" lon="2.22879">
        <ele>65.8</ele>
        <time>2013-03-31T08:35:34Z</time>
      </trkpt>
      <trkpt lat="50.07775" lon="2.2289">
        <ele>63.6</ele>
        <time>2013-03-31T08:35:42Z</time>
      </trkpt>
      <trkpt lat="50.0778" lon="2.22897">
        <ele>62.2</ele>
        <time>2013-03-31T08:35:47Z</time>
      </trkpt>
      <trkpt lat="50.07779" lon="2.22905">
        <ele>60</ele>
        <time>2013-03-31T08:35:55Z</time>
      </trkpt>
      <trkpt lat="50.07793" lon="2.22903">
        <ele>57</ele>
        <time>2013-03-31T08:36:04Z</time>
      </trkpt>
      <trkpt lat="50.07806" lon="2.22913">
        <ele>58.4</ele>
        <time>2013-03-31T08:36:14Z</time>
      </trkpt>
      <trkpt lat="50.07816" lon="2.22915">
        <ele>60.6</ele>
        <time>2013-03-31T08:36:26Z</time>
      </trkpt>
      <trkpt lat="50.07813" lon="2.22917">
        <ele>61.6</ele>
        <time>2013-03-31T08:36:31Z</time>
      </trkpt>
      <trkpt lat="50.07826" lon="2.22922">
        <ele>62.4</ele>
        <time>2013-03-31T08:36:36Z</time>
      </trkpt>
      <trkpt lat="50.07843" lon="2.22924">
        <ele>68.1</ele>
        <time>2013-03-31T08:36:48Z</time>
      </trkpt>
      <trkpt lat="50.07843" lon="2.22924">
        <ele>68.1</ele>
        <time>2013-03-31T08:38:29Z</time>
      </trkpt>
      <trkpt lat="50.07845" lon="2.22919">
        <ele>72.5</ele>
        <time>2013-03-31T08:38:32Z</time>
      </trkpt>
      <trkpt lat="50.0785" lon="2.22912">
        <ele>72.4</ele>
        <time>2013-03-31T08:38:44Z</time>
      </trkpt>
      <trkpt lat="50.0785" lon="2.22912">
        <ele>72.4</ele>
        <time>2013-03-31T08:40:20Z</time>
      </trkpt>
      <trkpt lat="50.07852" lon="2.22909">
        <ele>72</ele>
        <time>2013-03-31T08:40:22Z</time>
      </trkpt>
      <trkpt lat="50.07847" lon="2.22922">
        <ele>71.6</ele>
        <time>2013-03-31T08:40:26Z</time>
      </trkpt>
      <trkpt lat="50.07852" lon="2.2292">
        <ele>71.8</ele>
        <time>2013-03-31T08:40:37Z</time>
      </trkpt>
      <trkpt lat="50.07852" lon="2.2292">
        <ele>71.8</ele>
        <time>2013-03-31T08:42:12Z</time>
      </trkpt>
      <trkpt lat="50.07854" lon="2.22913">
        <ele>72.3</ele>
        <time>2013-03-31T08:42:17Z</time>
      </trkpt>
      <trkpt lat="50.07862" lon="2.22921">
        <ele>72.6</ele>
        <time>2013-03-31T08:42:25Z</time>
      </trkpt>
      <trkpt lat="50.07848" lon="2.22924">
        <ele>72.9</ele>
        <time>2013-03-31T08:42:33Z</time>
      </trkpt>
      <trkpt lat="50.07844" lon="2.22934">
        <ele>71.8</ele>
        <time>2013-03-31T08:42:41Z</time>
      </trkpt>
      <trkpt lat="50.07849" lon="2.2294">
        <ele>70.9</ele>
        <time>2013-03-31T08:42:45Z</time>
      </trkpt>
      <trkpt lat="50.07848" lon="2.22949">
        <ele>72.3</ele>
        <time>2013-03-31T08:42:56Z</time>
      </trkpt>
      <trkpt lat="50.07848" lon="2.22949">
        <ele>72.3</ele>
        <time>2013-03-31T08:43:30Z</time>
      </trkpt>
      <trkpt lat="50.07852" lon="2.22951">
        <ele>75.3</ele>
        <time>2013-03-31T08:43:31Z</time>
      </trkpt>
      <trkpt lat="50.07851" lon="2.22958">
        <ele>75.7</ele>
        <time>2013-03-31T08:43:35Z</time>
      </trkpt>
      <trkpt lat="50.07846" lon="2.2296">
        <ele>74.8</ele>
        <time>2013-03-31T08:43:40Z</time>
      </trkpt>
      <trkpt lat="50.07858" lon="2.22938">
        <ele>69.8</ele>
        <time>2013-03-31T08:43:55Z</time>
      </trkpt>
      <trkpt lat="50.07858" lon="2.22938">
        <ele>69.8</ele>
        <time>2013-03-31T08:49:21Z</time>
      </trkpt>
      <trkpt lat="50.07864" lon="2.22931">
        <ele>66.7</ele>
        <time>2013-03-31T08:49:34Z</time>
      </trkpt>
      <trkpt lat="50.07874" lon="2.22946">
        <ele>69.1</ele>
        <time>2013-03-31T08:49:46Z</time>
      </trkpt>
      <trkpt lat="50.07888" lon="2.22954">
        <ele>72.8</ele>
        <time>2013-03-31T08:50:11Z</time>
      </trkpt>
      <trkpt lat="50.07901" lon="2.22963">
        <ele>70.6</ele>
        <time>2013-03-31T08:50:31Z</time>
      </trkpt>
      <trkpt lat="50.07904" lon="2.22966">
        <ele>69.2</ele>
        <time>2013-03-31T08:50:37Z</time>
      </trkpt>
      <trkpt lat="50.07908" lon="2.22967">
        <ele>69.9</ele>
        <time>2013-03-31T08:50:49Z</time>
      </trkpt>
      <trkpt lat="50.07921" lon="2.22973">
        <ele>71</ele>
        <time>2013-03-31T08:51:11Z</time>
      </trkpt>
      <trkpt lat="50.07928" lon="2.23003">
        <ele>70.4</ele>
        <time>2013-03-31T08:51:27Z</time>
      </trkpt>
      <trkpt lat="50.07928" lon="2.23003">
        <ele>70.4</ele>
        <time>2013-03-31T08:52:19Z</time>
      </trkpt>
      <trkpt lat="50.07927" lon="2.23016">
        <ele>69</ele>
        <time>2013-03-31T08:52:23Z</time>
      </trkpt>
      <trkpt lat="50.07919" lon="2.23034">
        <ele>72.5</ele>
        <time>2013-03-31T08:52:37Z</time>
      </trkpt>
      <trkpt lat="50.07918" lon="2.23055">
        <ele>75.3</ele>
        <time>2013-03-31T08:52:46Z</time>
      </trkpt>
      <trkpt lat="50.07919" lon="2.23058">
        <ele>75.7</ele>
        <time>2013-03-31T08:52:48Z</time>
      </trkpt>
      <trkpt lat="50.07905" lon="2.23065">
        <ele>73.3</ele>
        <time>2013-03-31T08:53:06Z</time>
      </trkpt>
      <trkpt lat="50.07896" lon="2.23074">
        <ele>73.9</ele>
        <time>2013-03-31T08:53:19Z</time>
      </trkpt>
      <trkpt lat="50.07882" lon="2.23075">
        <ele>74.3</ele>
        <time>2013-03-31T08:53:26Z</time>
      </trkpt>
      <trkpt lat="50.07867" lon="2.23082">
        <ele>74.9</ele>
        <time>2013-03-31T08:53:40Z</time>
      </trkpt>
      <trkpt lat="50.07855" lon="2.23093">
        <ele>75.7</ele>
        <time>2013-03-31T08:53:55Z</time>
      </trkpt>
      <trkpt lat="50.07841" lon="2.2309">
        <ele>76.3</ele>
        <time>2013-03-31T08:54:05Z</time>
      </trkpt>
      <trkpt lat="50.07828" lon="2.23101">
        <ele>77.3</ele>
        <time>2013-03-31T08:54:14Z</time>
      </trkpt>
      <trkpt lat="50.07814" lon="2.23114">
        <ele>78.2</ele>
        <time>2013-03-31T08:54:23Z</time>
      </trkpt>
      <trkpt lat="50.078" lon="2.23109">
        <ele>79.8</ele>
        <time>2013-03-31T08:54:38Z</time>
      </trkpt>
      <trkpt lat="50.07785" lon="2.23115">
        <ele>80.1</ele>
        <time>2013-03-31T08:54:43Z</time>
      </trkpt>
      <trkpt lat="50.07774" lon="2.23128">
        <ele>80.5</ele>
        <time>2013-03-31T08:54:57Z</time>
      </trkpt>
      <trkpt lat="50.07772" lon="2.23137">
        <ele>80.6</ele>
        <time>2013-03-31T08:55:01Z</time>
      </trkpt>
      <trkpt lat="50.07788" lon="2.23133">
        <ele>80.8</ele>
        <time>2013-03-31T08:55:07Z</time>
      </trkpt>
      <trkpt lat="50.07802" lon="2.23141">
        <ele>81</ele>
        <time>2013-03-31T08:55:13Z</time>
      </trkpt>
      <trkpt lat="50.0781" lon="2.23154">
        <ele>81.1</ele>
        <time>2013-03-31T08:55:18Z</time>
      </trkpt>
      <trkpt lat="50.07816" lon="2.2315">
        <ele>81.4</ele>
        <time>2013-03-31T08:55:27Z</time>
      </trkpt>
      <trkpt lat="50.07819" lon="2.23171">
        <ele>81.6</ele>
        <time>2013-03-31T08:55:33Z</time>
      </trkpt>
      <trkpt lat="50.07817" lon="2.23184">
        <ele>81.7</ele>
        <time>2013-03-31T08:55:37Z</time>
      </trkpt>
      <trkpt lat="50.07829" lon="2.23194">
        <ele>81.9</ele>
        <time>2013-03-31T08:55:45Z</time>
      </trkpt>
      <trkpt lat="50.07826" lon="2.2321">
        <ele>82.5</ele>
        <time>2013-03-31T08:56:05Z</time>
      </trkpt>
      <trkpt lat="50.07832" lon="2.23216">
        <ele>82.6</ele>
        <time>2013-03-31T08:56:08Z</time>
      </trkpt>
      <trkpt lat="50.07844" lon="2.23205">
        <ele>82.7</ele>
        <time>2013-03-31T08:56:13Z</time>
      </trkpt>
      <trkpt lat="50.07858" lon="2.23197">
        <ele>83</ele>
        <time>2013-03-31T08:56:23Z</time>
      </trkpt>
      <trkpt lat="50.07872" lon="2.23199">
        <ele>83.3</ele>
        <time>2013-03-31T08:56:32Z</time>
      </trkpt>
      <trkpt lat="50.07884" lon="2.23209">
        <ele>83.6</ele>
        <time>2013-03-31T08:56:42Z</time>
      </trkpt>
      <trkpt lat="50.07895" lon="2.23223">
        <ele>83.8</ele>
        <time>2013-03-31T08:56:51Z</time>
      </trkpt>
      <trkpt lat="50.07904" lon="2.23241">
        <ele>84.5</ele>
        <time>2013-03-31T08:57:13Z</time>
      </trkpt>
      <trkpt lat="50.07916" lon="2.23251">
        <ele>84.7</ele>
        <time>2013-03-31T08:57:22Z</time>
      </trkpt>
      <trkpt lat="50.0793" lon="2.23258">
        <ele>87.4</ele>
        <time>2013-03-31T08:57:35Z</time>
      </trkpt>
      <trkpt lat="50.07944" lon="2.23263">
        <ele>88</ele>
        <time>2013-03-31T08:57:48Z</time>
      </trkpt>
      <trkpt lat="50.07957" lon="2.23269">
        <ele>88.2</ele>
        <time>2013-03-31T08:58:10Z</time>
      </trkpt>
      <trkpt lat="50.07971" lon="2.23267">
        <ele>91</ele>
        <time>2013-03-31T08:58:21Z</time>
      </trkpt>
      <trkpt lat="50.07982" lon="2.23282">
        <ele>91.8</ele>
        <time>2013-03-31T08:58:31Z</time>
      </trkpt>
      <trkpt lat="50.07991" lon="2.23299">
        <ele>95.1</ele>
        <time>2013-03-31T08:58:50Z</time>
      </trkpt>
      <trkpt lat="50.08003" lon="2.23314">
        <ele>101.1</ele>
        <time>2013-03-31T08:59:04Z</time>
      </trkpt>
      <trkpt lat="50.08011" lon="2.23336">
        <ele>103.8</ele>
        <time>2013-03-31T08:59:15Z</time>
      </trkpt>
      <trkpt lat="50.08021" lon="2.23354">
        <ele>110.3</ele>
        <time>2013-03-31T08:59:36Z</time>
      </trkpt>
      <trkpt lat="50.08033" lon="2.23367">
        <ele>113</ele>
        <time>2013-03-31T08:59:44Z</time>
      </trkpt>
      <trkpt lat="50.08033" lon="2.23389">
        <ele>116.8</ele>
        <time>2013-03-31T08:59:57Z</time>
      </trkpt>
      <trkpt lat="50.08036" lon="2.23412">
        <ele>120.8</ele>
        <time>2013-03-31T09:00:13Z</time>
      </trkpt>
      <trkpt lat="50.08036" lon="2.23433">
        <ele>121</ele>
        <time>2013-03-31T09:00:23Z</time>
      </trkpt>
      <trkpt lat="50.08043" lon="2.23457">
        <ele>123.8</ele>
        <time>2013-03-31T09:00:39Z</time>
      </trkpt>
      <trkpt lat="50.08048" lon="2.23477">
        <ele>125.5</ele>
        <time>2013-03-31T09:00:49Z</time>
      </trkpt>
      <trkpt lat="50.08054" lon="2.23497">
        <ele>126.7</ele>
        <time>2013-03-31T09:01:03Z</time>
      </trkpt>
      <trkpt lat="50.08059" lon="2.23517">
        <ele>131</ele>
        <time>2013-03-31T09:01:17Z</time>
      </trkpt>
      <trkpt lat="50.0806" lon="2.23538">
        <ele>133.2</ele>
        <time>2013-03-31T09:01:32Z</time>
      </trkpt>
      <trkpt lat="50.08056" lon="2.23559">
        <ele>133.6</ele>
        <time>2013-03-31T09:01:48Z</time>
      </trkpt>
      <trkpt lat="50.08051" lon="2.23579">
        <ele>134.8</ele>
        <time>2013-03-31T09:02:08Z</time>
      </trkpt>
      <trkpt lat="50.08043" lon="2.236">
        <ele>138.1</ele>
        <time>2013-03-31T09:02:15Z</time>
      </trkpt>
      <trkpt lat="50.08041" lon="2.23624">
        <ele>138.6</ele>
        <time>2013-03-31T09:02:21Z</time>
      </trkpt>
      <trkpt lat="50.08039" lon="2.23646">
        <ele>136.8</ele>
        <time>2013-03-31T09:02:35Z</time>
      </trkpt>
      <trkpt lat="50.08025" lon="2.23649">
        <ele>140.1</ele>
        <time>2013-03-31T09:03:02Z</time>
      </trkpt>
      <trkpt lat="50.08012" lon="2.23652">
        <ele>145.6</ele>
        <time>2013-03-31T09:03:13Z</time>
      </trkpt>
      <trkpt lat="50.07999" lon="2.2366">
        <ele>147.7</ele>
        <time>2013-03-31T09:03:26Z</time>
      </trkpt>
      <trkpt lat="50.07985" lon="2.2366">
        <ele>148.4</ele>
        <time>2013-03-31T09:03:41Z</time>
      </trkpt>
      <trkpt lat="50.07972" lon="2.23664">
        <ele>148.7</ele>
        <time>2013-03-31T09:03:53Z</time>
      </trkpt>
      <trkpt lat="50.07971" lon="2.2367">
        <ele>147.1</ele>
        <time>2013-03-31T09:04:04Z</time>
      </trkpt>
      <trkpt lat="50.07971" lon="2.2367">
        <ele>147.1</ele>
        <time>2013-03-31T09:05:09Z</time>
      </trkpt>
      <trkpt lat="50.07979" lon="2.23673">
        <ele>145.3</ele>
        <time>2013-03-31T09:05:11Z</time>
      </trkpt>
      <trkpt lat="50.07966" lon="2.23683">
        <ele>148.9</ele>
        <time>2013-03-31T09:05:24Z</time>
      </trkpt>
      <trkpt lat="50.07962" lon="2.23682">
        <ele>150.5</ele>
        <time>2013-03-31T09:05:27Z</time>
      </trkpt>
      <trkpt lat="50.07959" lon="2.2369">
        <ele>145.1</ele>
        <time>2013-03-31T09:05:44Z</time>
      </trkpt>
      <trkpt lat="50.07959" lon="2.2369">
        <ele>145.1</ele>
        <time>2013-03-31T09:06:28Z</time>
      </trkpt>
      <trkpt lat="50.07947" lon="2.23702">
        <ele>144</ele>
        <time>2013-03-31T09:06:35Z</time>
      </trkpt>
      <trkpt lat="50.07917" lon="2.23713">
        <ele>144</ele>
        <time>2013-03-31T09:07:17Z</time>
      </trkpt>
      <trkpt lat="50.07917" lon="2.23713">
        <ele>144</ele>
        <time>2013-03-31T09:07:54Z</time>
      </trkpt>
      <trkpt lat="50.07901" lon="2.23726">
        <ele>141</ele>
        <time>2013-03-31T09:07:59Z</time>
      </trkpt>
      <trkpt lat="50.07887" lon="2.23735">
        <ele>141.4</ele>
        <time>2013-03-31T09:08:22Z</time>
      </trkpt>
      <trkpt lat="50.07876" lon="2.23745">
        <ele>144.6</ele>
        <time>2013-03-31T09:08:35Z</time>
      </trkpt>
      <trkpt lat="50.07869" lon="2.23754">
        <ele>145.7</ele>
        <time>2013-03-31T09:08:46Z</time>
      </trkpt>
      <trkpt lat="50.07857" lon="2.23742">
        <ele>144.3</ele>
        <time>2013-03-31T09:08:58Z</time>
      </trkpt>
      <trkpt lat="50.07845" lon="2.23756">
        <ele>144.6</ele>
        <time>2013-03-31T09:09:07Z</time>
      </trkpt>
      <trkpt lat="50.07833" lon="2.23768">
        <ele>145.2</ele>
        <time>2013-03-31T09:09:15Z</time>
      </trkpt>
      <trkpt lat="50.07823" lon="2.23784">
        <ele>146.1</ele>
        <time>2013-03-31T09:09:25Z</time>
      </trkpt>
      <trkpt lat="50.07811" lon="2.23797">
        <ele>146.9</ele>
        <time>2013-03-31T09:09:35Z</time>
      </trkpt>
      <trkpt lat="50.078" lon="2.23809">
        <ele>147.7</ele>
        <time>2013-03-31T09:09:44Z</time>
      </trkpt>
      <trkpt lat="50.07789" lon="2.23823">
        <ele>149.4</ele>
        <time>2013-03-31T09:09:52Z</time>
      </trkpt>
      <trkpt lat="50.07777" lon="2.23835">
        <ele>152.4</ele>
        <time>2013-03-31T09:10:00Z</time>
      </trkpt>
      <trkpt lat="50.07764" lon="2.23842">
        <ele>154.8</ele>
        <time>2013-03-31T09:10:10Z</time>
      </trkpt>
      <trkpt lat="50.0775" lon="2.23838">
        <ele>156.1</ele>
        <time>2013-03-31T09:10:20Z</time>
      </trkpt>
      <trkpt lat="50.07737" lon="2.23827">
        <ele>159.4</ele>
        <time>2013-03-31T09:10:30Z</time>
      </trkpt>
      <trkpt lat="50.07724" lon="2.23821">
        <ele>161.8</ele>
        <time>2013-03-31T09:10:39Z</time>
      </trkpt>
      <trkpt lat="50.07709" lon="2.23819">
        <ele>162.9</ele>
        <time>2013-03-31T09:10:48Z</time>
      </trkpt>
      <trkpt lat="50.07697" lon="2.23808">
        <ele>161.8</ele>
        <time>2013-03-31T09:10:59Z</time>
      </trkpt>
      <trkpt lat="50.07683" lon="2.23806">
        <ele>161.1</ele>
        <time>2013-03-31T09:11:08Z</time>
      </trkpt>
      <trkpt lat="50.07668" lon="2.23809">
        <ele>161.8</ele>
        <time>2013-03-31T09:11:19Z</time>
      </trkpt>
      <trkpt lat="50.07653" lon="2.23812">
        <ele>162.4</ele>
        <time>2013-03-31T09:11:30Z</time>
      </trkpt>
      <trkpt lat="50.0764" lon="2.23811">
        <ele>162.9</ele>
        <time>2013-03-31T09:11:39Z</time>
      </trkpt>
      <trkpt lat="50.07625" lon="2.23814">
        <ele>163.6</ele>
        <time>2013-03-31T09:11:50Z</time>
      </trkpt>
      <trkpt lat="50.07611" lon="2.23815">
        <ele>163.9</ele>
        <time>2013-03-31T09:12:00Z</time>
      </trkpt>
      <trkpt lat="50.07598" lon="2.2381">
        <ele>163.6</ele>
        <time>2013-03-31T09:12:07Z</time>
      </trkpt>
      <trkpt lat="50.07584" lon="2.23809">
        <ele>163.1</ele>
        <time>2013-03-31T09:12:19Z</time>
      </trkpt>
      <trkpt lat="50.0757" lon="2.23811">
        <ele>162.8</ele>
        <time>2013-03-31T09:12:28Z</time>
      </trkpt>
      <trkpt lat="50.07556" lon="2.23814">
        <ele>162.4</ele>
        <time>2013-03-31T09:12:36Z</time>
      </trkpt>
      <trkpt lat="50.07541" lon="2.2381">
        <ele>162</ele>
        <time>2013-03-31T09:12:46Z</time>
      </trkpt>
      <trkpt lat="50.07528" lon="2.23802">
        <ele>161.6</ele>
        <time>2013-03-31T09:12:56Z</time>
      </trkpt>
      <trkpt lat="50.07514" lon="2.23793">
        <ele>161.1</ele>
        <time>2013-03-31T09:13:09Z</time>
      </trkpt>
      <trkpt lat="50.075" lon="2.23787">
        <ele>160.8</ele>
        <time>2013-03-31T09:13:18Z</time>
      </trkpt>
      <trkpt lat="50.07487" lon="2.2378">
        <ele>160.6</ele>
        <time>2013-03-31T09:13:27Z</time>
      </trkpt>
      <trkpt lat="50.07473" lon="2.23778">
        <ele>160.3</ele>
        <time>2013-03-31T09:13:38Z</time>
      </trkpt>
      <trkpt lat="50.07459" lon="2.23774">
        <ele>160</ele>
        <time>2013-03-31T09:13:48Z</time>
      </trkpt>
      <trkpt lat="50.07446" lon="2.23764">
        <ele>159.7</ele>
        <time>2013-03-31T09:13:59Z</time>
      </trkpt>
      <trkpt lat="50.07433" lon="2.23757">
        <ele>159.3</ele>
        <time>2013-03-31T09:14:10Z</time>
      </trkpt>
      <trkpt lat="50.07421" lon="2.23745">
        <ele>159.1</ele>
        <time>2013-03-31T09:14:19Z</time>
      </trkpt>
      <trkpt lat="50.07408" lon="2.23735">
        <ele>158.8</ele>
        <time>2013-03-31T09:14:29Z</time>
      </trkpt>
      <trkpt lat="50.07394" lon="2.23727">
        <ele>158.5</ele>
        <time>2013-03-31T09:14:41Z</time>
      </trkpt>
      <trkpt lat="50.07384" lon="2.23712">
        <ele>158.2</ele>
        <time>2013-03-31T09:14:50Z</time>
      </trkpt>
      <trkpt lat="50.07376" lon="2.23694">
        <ele>155.8</ele>
        <time>2013-03-31T09:15:05Z</time>
      </trkpt>
      <trkpt lat="50.07366" lon="2.23681">
        <ele>155.6</ele>
        <time>2013-03-31T09:15:15Z</time>
      </trkpt>
      <trkpt lat="50.07355" lon="2.23664">
        <ele>156.4</ele>
        <time>2013-03-31T09:15:24Z</time>
      </trkpt>
      <trkpt lat="50.07345" lon="2.23657">
        <ele>157</ele>
        <time>2013-03-31T09:15:30Z</time>
      </trkpt>
      <trkpt lat="50.07332" lon="2.2365">
        <ele>157.7</ele>
        <time>2013-03-31T09:15:38Z</time>
      </trkpt>
      <trkpt lat="50.0732" lon="2.23641">
        <ele>157.3</ele>
        <time>2013-03-31T09:15:46Z</time>
      </trkpt>
      <trkpt lat="50.07308" lon="2.2363">
        <ele>155.9</ele>
        <time>2013-03-31T09:15:56Z</time>
      </trkpt>
      <trkpt lat="50.07297" lon="2.23616">
        <ele>154.8</ele>
        <time>2013-03-31T09:16:05Z</time>
      </trkpt>
      <trkpt lat="50.07285" lon="2.23606">
        <ele>153.7</ele>
        <time>2013-03-31T09:16:18Z</time>
      </trkpt>
      <trkpt lat="50.07273" lon="2.23592">
        <ele>153</ele>
        <time>2013-03-31T09:16:27Z</time>
      </trkpt>
      <trkpt lat="50.07262" lon="2.23578">
        <ele>152.1</ele>
        <time>2013-03-31T09:16:37Z</time>
      </trkpt>
      <trkpt lat="50.07251" lon="2.23571">
        <ele>151.4</ele>
        <time>2013-03-31T09:16:46Z</time>
      </trkpt>
      <trkpt lat="50.07246" lon="2.23559">
        <ele>154.3</ele>
        <time>2013-03-31T09:16:55Z</time>
      </trkpt>
      <trkpt lat="50.07234" lon="2.2355">
        <ele>153.9</ele>
        <time>2013-03-31T09:17:04Z</time>
      </trkpt>
      <trkpt lat="50.07222" lon="2.23538">
        <ele>152.5</ele>
        <time>2013-03-31T09:17:14Z</time>
      </trkpt>
      <trkpt lat="50.07215" lon="2.2352">
        <ele>151.1</ele>
        <time>2013-03-31T09:17:25Z</time>
      </trkpt>
      <trkpt lat="50.07204" lon="2.23507">
        <ele>151.6</ele>
        <time>2013-03-31T09:17:35Z</time>
      </trkpt>
      <trkpt lat="50.07195" lon="2.23489">
        <ele>151.4</ele>
        <time>2013-03-31T09:17:45Z</time>
      </trkpt>
      <trkpt lat="50.07186" lon="2.23474">
        <ele>151.3</ele>
        <time>2013-03-31T09:17:55Z</time>
      </trkpt>
      <trkpt lat="50.07177" lon="2.23457">
        <ele>151.6</ele>
        <time>2013-03-31T09:18:06Z</time>
      </trkpt>
      <trkpt lat="50.07166" lon="2.23441">
        <ele>152</ele>
        <time>2013-03-31T09:18:16Z</time>
      </trkpt>
      <trkpt lat="50.07157" lon="2.23423">
        <ele>152.3</ele>
        <time>2013-03-31T09:18:28Z</time>
      </trkpt>
      <trkpt lat="50.07146" lon="2.23407">
        <ele>152.7</ele>
        <time>2013-03-31T09:18:38Z</time>
      </trkpt>
      <trkpt lat="50.07137" lon="2.23391">
        <ele>153</ele>
        <time>2013-03-31T09:18:47Z</time>
      </trkpt>
      <trkpt lat="50.07121" lon="2.23393">
        <ele>153.1</ele>
        <time>2013-03-31T09:18:52Z</time>
      </trkpt>
      <trkpt lat="50.07107" lon="2.23383">
        <ele>153.6</ele>
        <time>2013-03-31T09:19:06Z</time>
      </trkpt>
      <trkpt lat="50.07095" lon="2.23373">
        <ele>153.9</ele>
        <time>2013-03-31T09:19:15Z</time>
      </trkpt>
      <trkpt lat="50.07082" lon="2.23367">
        <ele>154.2</ele>
        <time>2013-03-31T09:19:26Z</time>
      </trkpt>
      <trkpt lat="50.07064" lon="2.23375">
        <ele>154.5</ele>
        <time>2013-03-31T09:19:33Z</time>
      </trkpt>
      <trkpt lat="50.0705" lon="2.23388">
        <ele>154.5</ele>
        <time>2013-03-31T09:19:35Z</time>
      </trkpt>
      <trkpt lat="50.07037" lon="2.23378">
        <ele>154.8</ele>
        <time>2013-03-31T09:19:44Z</time>
      </trkpt>
      <trkpt lat="50.07033" lon="2.23378">
        <ele>154.9</ele>
        <time>2013-03-31T09:19:46Z</time>
      </trkpt>
      <trkpt lat="50.07033" lon="2.23356">
        <ele>153.9</ele>
        <time>2013-03-31T09:19:55Z</time>
      </trkpt>
      <trkpt lat="50.07026" lon="2.23338">
        <ele>152.3</ele>
        <time>2013-03-31T09:20:06Z</time>
      </trkpt>
      <trkpt lat="50.07012" lon="2.2333">
        <ele>154.5</ele>
        <time>2013-03-31T09:20:13Z</time>
      </trkpt>
      <trkpt lat="50.07001" lon="2.23316">
        <ele>156.6</ele>
        <time>2013-03-31T09:20:25Z</time>
      </trkpt>
      <trkpt lat="50.06989" lon="2.23305">
        <ele>155.9</ele>
        <time>2013-03-31T09:20:33Z</time>
      </trkpt>
      <trkpt lat="50.06987" lon="2.23301">
        <ele>155.7</ele>
        <time>2013-03-31T09:20:35Z</time>
      </trkpt>
      <trkpt lat="50.06985" lon="2.23279">
        <ele>154.8</ele>
        <time>2013-03-31T09:20:46Z</time>
      </trkpt>
      <trkpt lat="50.06969" lon="2.23275">
        <ele>154</ele>
        <time>2013-03-31T09:20:55Z</time>
      </trkpt>
      <trkpt lat="50.06954" lon="2.23271">
        <ele>153.4</ele>
        <time>2013-03-31T09:21:01Z</time>
      </trkpt>
      <trkpt lat="50.06942" lon="2.23261">
        <ele>152.5</ele>
        <time>2013-03-31T09:21:11Z</time>
      </trkpt>
      <trkpt lat="50.06934" lon="2.23243">
        <ele>151.2</ele>
        <time>2013-03-31T09:21:23Z</time>
      </trkpt>
      <trkpt lat="50.06922" lon="2.2323">
        <ele>149.1</ele>
        <time>2013-03-31T09:21:37Z</time>
      </trkpt>
      <trkpt lat="50.06913" lon="2.23213">
        <ele>147</ele>
        <time>2013-03-31T09:21:48Z</time>
      </trkpt>
      <trkpt lat="50.06901" lon="2.23199">
        <ele>142.9</ele>
        <time>2013-03-31T09:21:58Z</time>
      </trkpt>
      <trkpt lat="50.06891" lon="2.23184">
        <ele>138.5</ele>
        <time>2013-03-31T09:22:08Z</time>
      </trkpt>
      <trkpt lat="50.06879" lon="2.23172">
        <ele>139</ele>
        <time>2013-03-31T09:22:18Z</time>
      </trkpt>
      <trkpt lat="50.06869" lon="2.23155">
        <ele>139.3</ele>
        <time>2013-03-31T09:22:28Z</time>
      </trkpt>
      <trkpt lat="50.06859" lon="2.23141">
        <ele>139.6</ele>
        <time>2013-03-31T09:22:37Z</time>
      </trkpt>
      <trkpt lat="50.06845" lon="2.23133">
        <ele>140</ele>
        <time>2013-03-31T09:22:48Z</time>
      </trkpt>
      <trkpt lat="50.06832" lon="2.23126">
        <ele>137.4</ele>
        <time>2013-03-31T09:22:57Z</time>
      </trkpt>
      <trkpt lat="50.06821" lon="2.23114">
        <ele>137.5</ele>
        <time>2013-03-31T09:23:08Z</time>
      </trkpt>
      <trkpt lat="50.06811" lon="2.23101">
        <ele>137.2</ele>
        <time>2013-03-31T09:23:15Z</time>
      </trkpt>
      <trkpt lat="50.06802" lon="2.23084">
        <ele>136.6</ele>
        <time>2013-03-31T09:23:24Z</time>
      </trkpt>
      <trkpt lat="50.06789" lon="2.23073">
        <ele>136.1</ele>
        <time>2013-03-31T09:23:34Z</time>
      </trkpt>
      <trkpt lat="50.06782" lon="2.23053">
        <ele>135.6</ele>
        <time>2013-03-31T09:23:43Z</time>
      </trkpt>
      <trkpt lat="50.06773" lon="2.23036">
        <ele>134.7</ele>
        <time>2013-03-31T09:23:55Z</time>
      </trkpt>
      <trkpt lat="50.06762" lon="2.23022">
        <ele>132.7</ele>
        <time>2013-03-31T09:24:06Z</time>
      </trkpt>
      <trkpt lat="50.06752" lon="2.23005">
        <ele>130.8</ele>
        <time>2013-03-31T09:24:17Z</time>
      </trkpt>
      <trkpt lat="50.06743" lon="2.22988">
        <ele>129.1</ele>
        <time>2013-03-31T09:24:27Z</time>
      </trkpt>
      <trkpt lat="50.06746" lon="2.22965">
        <ele>126</ele>
        <time>2013-03-31T09:24:41Z</time>
      </trkpt>
      <trkpt lat="50.06753" lon="2.22946">
        <ele>121.7</ele>
        <time>2013-03-31T09:24:52Z</time>
      </trkpt>
      <trkpt lat="50.06767" lon="2.22946">
        <ele>114.6</ele>
        <time>2013-03-31T09:25:13Z</time>
      </trkpt>
      <trkpt lat="50.06772" lon="2.22924">
        <ele>114.8</ele>
        <time>2013-03-31T09:25:32Z</time>
      </trkpt>
      <trkpt lat="50.06779" lon="2.22905">
        <ele>112.4</ele>
        <time>2013-03-31T09:25:47Z</time>
      </trkpt>
      <trkpt lat="50.06788" lon="2.22888">
        <ele>108</ele>
        <time>2013-03-31T09:26:03Z</time>
      </trkpt>
      <trkpt lat="50.06795" lon="2.2287">
        <ele>107.7</ele>
        <time>2013-03-31T09:26:14Z</time>
      </trkpt>
      <trkpt lat="50.06803" lon="2.22852">
        <ele>107</ele>
        <time>2013-03-31T09:26:23Z</time>
      </trkpt>
      <trkpt lat="50.06806" lon="2.2283">
        <ele>106</ele>
        <time>2013-03-31T09:26:33Z</time>
      </trkpt>
      <trkpt lat="50.06819" lon="2.22822">
        <ele>105.3</ele>
        <time>2013-03-31T09:26:45Z</time>
      </trkpt>
      <trkpt lat="50.06829" lon="2.22805">
        <ele>105.6</ele>
        <time>2013-03-31T09:26:56Z</time>
      </trkpt>
      <trkpt lat="50.06838" lon="2.22788">
        <ele>106.5</ele>
        <time>2013-03-31T09:27:06Z</time>
      </trkpt>
      <trkpt lat="50.06852" lon="2.2278">
        <ele>107.7</ele>
        <time>2013-03-31T09:27:30Z</time>
      </trkpt>
      <trkpt lat="50.06855" lon="2.22759">
        <ele>109</ele>
        <time>2013-03-31T09:27:39Z</time>
      </trkpt>
      <trkpt lat="50.06865" lon="2.22742">
        <ele>111.2</ele>
        <time>2013-03-31T09:27:51Z</time>
      </trkpt>
      <trkpt lat="50.06874" lon="2.22737">
        <ele>112.2</ele>
        <time>2013-03-31T09:27:56Z</time>
      </trkpt>
      <trkpt lat="50.06887" lon="2.22728">
        <ele>115.2</ele>
        <time>2013-03-31T09:28:11Z</time>
      </trkpt>
      <trkpt lat="50.0689" lon="2.22707">
        <ele>112.2</ele>
        <time>2013-03-31T09:28:26Z</time>
      </trkpt>
      <trkpt lat="50.06884" lon="2.22688">
        <ele>113.2</ele>
        <time>2013-03-31T09:28:41Z</time>
      </trkpt>
      <trkpt lat="50.06875" lon="2.22671">
        <ele>114</ele>
        <time>2013-03-31T09:28:53Z</time>
      </trkpt>
      <trkpt lat="50.06865" lon="2.22656">
        <ele>114.7</ele>
        <time>2013-03-31T09:29:05Z</time>
      </trkpt>
      <trkpt lat="50.06855" lon="2.22642">
        <ele>115.3</ele>
        <time>2013-03-31T09:29:13Z</time>
      </trkpt>
      <trkpt lat="50.06846" lon="2.22625">
        <ele>116</ele>
        <time>2013-03-31T09:29:24Z</time>
      </trkpt>
      <trkpt lat="50.06838" lon="2.22607">
        <ele>117</ele>
        <time>2013-03-31T09:29:38Z</time>
      </trkpt>
      <trkpt lat="50.0683" lon="2.22589">
        <ele>117.8</ele>
        <time>2013-03-31T09:29:50Z</time>
      </trkpt>
      <trkpt lat="50.06822" lon="2.22571">
        <ele>118.6</ele>
        <time>2013-03-31T09:30:02Z</time>
      </trkpt>
      <trkpt lat="50.06811" lon="2.22558">
        <ele>117.6</ele>
        <time>2013-03-31T09:30:14Z</time>
      </trkpt>
      <trkpt lat="50.06803" lon="2.22538">
        <ele>115.4</ele>
        <time>2013-03-31T09:30:23Z</time>
      </trkpt>
      <trkpt lat="50.06797" lon="2.2252">
        <ele>112.9</ele>
        <time>2013-03-31T09:30:35Z</time>
      </trkpt>
      <trkpt lat="50.06787" lon="2.22503">
        <ele>110.5</ele>
        <time>2013-03-31T09:30:48Z</time>
      </trkpt>
      <trkpt lat="50.06777" lon="2.22488">
        <ele>108</ele>
        <time>2013-03-31T09:30:59Z</time>
      </trkpt>
      <trkpt lat="50.06765" lon="2.22472">
        <ele>107.2</ele>
        <time>2013-03-31T09:31:07Z</time>
      </trkpt>
      <trkpt lat="50.06754" lon="2.22459">
        <ele>107.4</ele>
        <time>2013-03-31T09:31:13Z</time>
      </trkpt>
      <trkpt lat="50.06742" lon="2.2245">
        <ele>107.2</ele>
        <time>2013-03-31T09:31:34Z</time>
      </trkpt>
      <trkpt lat="50.06729" lon="2.2244">
        <ele>107.4</ele>
        <time>2013-03-31T09:31:45Z</time>
      </trkpt>
      <trkpt lat="50.06716" lon="2.2243">
        <ele>106.2</ele>
        <time>2013-03-31T09:31:54Z</time>
      </trkpt>
      <trkpt lat="50.06706" lon="2.22414">
        <ele>104.9</ele>
        <time>2013-03-31T09:32:04Z</time>
      </trkpt>
      <trkpt lat="50.06699" lon="2.22395">
        <ele>103</ele>
        <time>2013-03-31T09:32:18Z</time>
      </trkpt>
      <trkpt lat="50.0669" lon="2.22378">
        <ele>101.2</ele>
        <time>2013-03-31T09:32:30Z</time>
      </trkpt>
      <trkpt lat="50.06685" lon="2.22359">
        <ele>99.2</ele>
        <time>2013-03-31T09:32:43Z</time>
      </trkpt>
      <trkpt lat="50.06672" lon="2.22345">
        <ele>97.3</ele>
        <time>2013-03-31T09:32:57Z</time>
      </trkpt>
      <trkpt lat="50.06659" lon="2.22336">
        <ele>99.1</ele>
        <time>2013-03-31T09:33:06Z</time>
      </trkpt>
      <trkpt lat="50.06645" lon="2.22331">
        <ele>99.4</ele>
        <time>2013-03-31T09:33:17Z</time>
      </trkpt>
      <trkpt lat="50.06631" lon="2.22327">
        <ele>99.9</ele>
        <time>2013-03-31T09:33:30Z</time>
      </trkpt>
      <trkpt lat="50.06617" lon="2.22319">
        <ele>100.4</ele>
        <time>2013-03-31T09:33:46Z</time>
      </trkpt>
      <trkpt lat="50.06605" lon="2.22308">
        <ele>100.7</ele>
        <time>2013-03-31T09:33:55Z</time>
      </trkpt>
      <trkpt lat="50.06592" lon="2.22298">
        <ele>101.1</ele>
        <time>2013-03-31T09:34:05Z</time>
      </trkpt>
      <trkpt lat="50.06578" lon="2.2229">
        <ele>101.4</ele>
        <time>2013-03-31T09:34:15Z</time>
      </trkpt>
      <trkpt lat="50.06564" lon="2.22284">
        <ele>101.8</ele>
        <time>2013-03-31T09:34:27Z</time>
      </trkpt>
      <trkpt lat="50.0655" lon="2.2228">
        <ele>101.8</ele>
        <time>2013-03-31T09:34:36Z</time>
      </trkpt>
      <trkpt lat="50.06536" lon="2.22277">
        <ele>101</ele>
        <time>2013-03-31T09:34:48Z</time>
      </trkpt>
      <trkpt lat="50.06525" lon="2.22261">
        <ele>100.5</ele>
        <time>2013-03-31T09:34:54Z</time>
      </trkpt>
      <trkpt lat="50.06515" lon="2.22245">
        <ele>99.6</ele>
        <time>2013-03-31T09:35:08Z</time>
      </trkpt>
      <trkpt lat="50.06507" lon="2.22228">
        <ele>95.8</ele>
        <time>2013-03-31T09:35:23Z</time>
      </trkpt>
      <trkpt lat="50.06495" lon="2.22218">
        <ele>91.5</ele>
        <time>2013-03-31T09:35:34Z</time>
      </trkpt>
      <trkpt lat="50.06482" lon="2.2221">
        <ele>89</ele>
        <time>2013-03-31T09:35:43Z</time>
      </trkpt>
      <trkpt lat="50.06469" lon="2.22202">
        <ele>87.3</ele>
        <time>2013-03-31T09:35:52Z</time>
      </trkpt>
      <trkpt lat="50.0646" lon="2.22186">
        <ele>84.2</ele>
        <time>2013-03-31T09:36:02Z</time>
      </trkpt>
      <trkpt lat="50.06447" lon="2.22178">
        <ele>82</ele>
        <time>2013-03-31T09:36:15Z</time>
      </trkpt>
      <trkpt lat="50.06434" lon="2.22168">
        <ele>80.9</ele>
        <time>2013-03-31T09:36:26Z</time>
      </trkpt>
      <trkpt lat="50.06423" lon="2.22154">
        <ele>79.2</ele>
        <time>2013-03-31T09:36:37Z</time>
      </trkpt>
      <trkpt lat="50.0641" lon="2.22146">
        <ele>77.6</ele>
        <time>2013-03-31T09:36:48Z</time>
      </trkpt>
      <trkpt lat="50.06396" lon="2.22141">
        <ele>77.5</ele>
        <time>2013-03-31T09:36:57Z</time>
      </trkpt>
      <trkpt lat="50.06383" lon="2.22133">
        <ele>77.3</ele>
        <time>2013-03-31T09:37:07Z</time>
      </trkpt>
      <trkpt lat="50.06371" lon="2.22119">
        <ele>75.6</ele>
        <time>2013-03-31T09:37:17Z</time>
      </trkpt>
      <trkpt lat="50.06361" lon="2.22104">
        <ele>72.4</ele>
        <time>2013-03-31T09:37:31Z</time>
      </trkpt>
      <trkpt lat="50.0635" lon="2.22093">
        <ele>67.4</ele>
        <time>2013-03-31T09:37:39Z</time>
      </trkpt>
      <trkpt lat="50.06353" lon="2.22085">
        <ele>62.6</ele>
        <time>2013-03-31T09:37:45Z</time>
      </trkpt>
      <trkpt lat="50.06342" lon="2.22069">
        <ele>53</ele>
        <time>2013-03-31T09:37:55Z</time>
      </trkpt>
      <trkpt lat="50.0633" lon="2.2206">
        <ele>48</ele>
        <time>2013-03-31T09:38:09Z</time>
      </trkpt>
      <trkpt lat="50.06323" lon="2.22041">
        <ele>45</ele>
        <time>2013-03-31T09:38:17Z</time>
      </trkpt>
      <trkpt lat="50.06323" lon="2.22017">
        <ele>47.7</ele>
        <time>2013-03-31T09:38:27Z</time>
      </trkpt>
      <trkpt lat="50.06319" lon="2.21995">
        <ele>47.7</ele>
        <time>2013-03-31T09:38:32Z</time>
      </trkpt>
      <trkpt lat="50.06325" lon="2.22015">
        <ele>44.5</ele>
        <time>2013-03-31T09:39:00Z</time>
      </trkpt>
      <trkpt lat="50.06317" lon="2.21997">
        <ele>42.4</ele>
        <time>2013-03-31T09:39:13Z</time>
      </trkpt>
      <trkpt lat="50.06311" lon="2.21974">
        <ele>41.3</ele>
        <time>2013-03-31T09:39:24Z</time>
      </trkpt>
      <trkpt lat="50.06311" lon="2.21952">
        <ele>42.7</ele>
        <time>2013-03-31T09:39:39Z</time>
      </trkpt>
      <trkpt lat="50.06307" lon="2.2193">
        <ele>41</ele>
        <time>2013-03-31T09:39:52Z</time>
      </trkpt>
      <trkpt lat="50.06303" lon="2.2193">
        <ele>44.8</ele>
        <time>2013-03-31T09:39:59Z</time>
      </trkpt>
      <trkpt lat="50.06303" lon="2.2193">
        <ele>44.8</ele>
        <time>2013-03-31T09:44:21Z</time>
      </trkpt>
      <trkpt lat="50.06298" lon="2.21937">
        <ele>49.1</ele>
        <time>2013-03-31T09:44:24Z</time>
      </trkpt>
      <trkpt lat="50.06285" lon="2.21926">
        <ele>48</ele>
        <time>2013-03-31T09:44:32Z</time>
      </trkpt>
      <trkpt lat="50.0627" lon="2.2192">
        <ele>50.1</ele>
        <time>2013-03-31T09:44:41Z</time>
      </trkpt>
      <trkpt lat="50.06256" lon="2.21915">
        <ele>51.8</ele>
        <time>2013-03-31T09:44:53Z</time>
      </trkpt>
      <trkpt lat="50.06241" lon="2.21911">
        <ele>51.2</ele>
        <time>2013-03-31T09:45:03Z</time>
      </trkpt>
      <trkpt lat="50.06225" lon="2.2191">
        <ele>50.5</ele>
        <time>2013-03-31T09:45:15Z</time>
      </trkpt>
      <trkpt lat="50.06214" lon="2.21897">
        <ele>49.7</ele>
        <time>2013-03-31T09:45:29Z</time>
      </trkpt>
      <trkpt lat="50.062" lon="2.21891">
        <ele>48.6</ele>
        <time>2013-03-31T09:45:48Z</time>
      </trkpt>
      <trkpt lat="50.06189" lon="2.21883">
        <ele>48.1</ele>
        <time>2013-03-31T09:45:57Z</time>
      </trkpt>
      <trkpt lat="50.06175" lon="2.21887">
        <ele>47.2</ele>
        <time>2013-03-31T09:46:06Z</time>
      </trkpt>
      <trkpt lat="50.06163" lon="2.21878">
        <ele>45.9</ele>
        <time>2013-03-31T09:46:17Z</time>
      </trkpt>
      <trkpt lat="50.06148" lon="2.21871">
        <ele>45.2</ele>
        <time>2013-03-31T09:46:23Z</time>
      </trkpt>
      <trkpt lat="50.06135" lon="2.21863">
        <ele>44.4</ele>
        <time>2013-03-31T09:46:30Z</time>
      </trkpt>
      <trkpt lat="50.06121" lon="2.21859">
        <ele>42.3</ele>
        <time>2013-03-31T09:46:38Z</time>
      </trkpt>
      <trkpt lat="50.06113" lon="2.21842">
        <ele>40.2</ele>
        <time>2013-03-31T09:46:45Z</time>
      </trkpt>
      <trkpt lat="50.06113" lon="2.21819">
        <ele>38</ele>
        <time>2013-03-31T09:46:55Z</time>
      </trkpt>
      <trkpt lat="50.06115" lon="2.21798">
        <ele>36.2</ele>
        <time>2013-03-31T09:47:05Z</time>
      </trkpt>
      <trkpt lat="50.06116" lon="2.21777">
        <ele>32.4</ele>
        <time>2013-03-31T09:47:15Z</time>
      </trkpt>
      <trkpt lat="50.06117" lon="2.21755">
        <ele>32.4</ele>
        <time>2013-03-31T09:47:23Z</time>
      </trkpt>
      <trkpt lat="50.06115" lon="2.21734">
        <ele>34.5</ele>
        <time>2013-03-31T09:47:36Z</time>
      </trkpt>
      <trkpt lat="50.06106" lon="2.21718">
        <ele>34.9</ele>
        <time>2013-03-31T09:47:48Z</time>
      </trkpt>
      <trkpt lat="50.06093" lon="2.21709">
        <ele>36.1</ele>
        <time>2013-03-31T09:47:59Z</time>
      </trkpt>
      <trkpt lat="50.0608" lon="2.21703">
        <ele>37</ele>
        <time>2013-03-31T09:48:08Z</time>
      </trkpt>
      <trkpt lat="50.06067" lon="2.21696">
        <ele>38.4</ele>
        <time>2013-03-31T09:48:18Z</time>
      </trkpt>
      <trkpt lat="50.06053" lon="2.21688">
        <ele>45.2</ele>
        <time>2013-03-31T09:48:33Z</time>
      </trkpt>
      <trkpt lat="50.0604" lon="2.21681">
        <ele>44</ele>
        <time>2013-03-31T09:48:39Z</time>
      </trkpt>
      <trkpt lat="50.06027" lon="2.2167">
        <ele>40</ele>
        <time>2013-03-31T09:48:51Z</time>
      </trkpt>
      <trkpt lat="50.06017" lon="2.2168">
        <ele>40.4</ele>
        <time>2013-03-31T09:49:01Z</time>
      </trkpt>
      <trkpt lat="50.06011" lon="2.21675">
        <ele>40.9</ele>
        <time>2013-03-31T09:49:07Z</time>
      </trkpt>
      <trkpt lat="50.06" lon="2.21695">
        <ele>41.5</ele>
        <time>2013-03-31T09:49:13Z</time>
      </trkpt>
      <trkpt lat="50.0599" lon="2.21711">
        <ele>42</ele>
        <time>2013-03-31T09:49:19Z</time>
      </trkpt>
      <trkpt lat="50.05976" lon="2.2172">
        <ele>42.8</ele>
        <time>2013-03-31T09:49:27Z</time>
      </trkpt>
      <trkpt lat="50.05966" lon="2.21734">
        <ele>43.5</ele>
        <time>2013-03-31T09:49:35Z</time>
      </trkpt>
      <trkpt lat="50.05954" lon="2.21745">
        <ele>44.8</ele>
        <time>2013-03-31T09:49:46Z</time>
      </trkpt>
      <trkpt lat="50.05941" lon="2.21751">
        <ele>46.1</ele>
        <time>2013-03-31T09:49:57Z</time>
      </trkpt>
      <trkpt lat="50.05927" lon="2.21756">
        <ele>47.6</ele>
        <time>2013-03-31T09:50:09Z</time>
      </trkpt>
      <trkpt lat="50.05914" lon="2.21761">
        <ele>50</ele>
        <time>2013-03-31T09:50:21Z</time>
      </trkpt>
      <trkpt lat="50.05899" lon="2.2176">
        <ele>52.5</ele>
        <time>2013-03-31T09:50:31Z</time>
      </trkpt>
      <trkpt lat="50.05885" lon="2.21761">
        <ele>52.3</ele>
        <time>2013-03-31T09:50:41Z</time>
      </trkpt>
      <trkpt lat="50.05872" lon="2.21764">
        <ele>50.1</ele>
        <time>2013-03-31T09:50:51Z</time>
      </trkpt>
      <trkpt lat="50.05858" lon="2.21769">
        <ele>49.9</ele>
        <time>2013-03-31T09:51:03Z</time>
      </trkpt>
      <trkpt lat="50.05844" lon="2.21769">
        <ele>51.1</ele>
        <time>2013-03-31T09:51:14Z</time>
      </trkpt>
      <trkpt lat="50.0583" lon="2.21771">
        <ele>51.9</ele>
        <time>2013-03-31T09:51:22Z</time>
      </trkpt>
      <trkpt lat="50.05817" lon="2.21768">
        <ele>49.9</ele>
        <time>2013-03-31T09:51:33Z</time>
      </trkpt>
      <trkpt lat="50.05803" lon="2.21764">
        <ele>52.2</ele>
        <time>2013-03-31T09:51:45Z</time>
      </trkpt>
      <trkpt lat="50.05788" lon="2.2176">
        <ele>53.8</ele>
        <time>2013-03-31T09:51:54Z</time>
      </trkpt>
      <trkpt lat="50.05774" lon="2.21761">
        <ele>53.6</ele>
        <time>2013-03-31T09:52:02Z</time>
      </trkpt>
      <trkpt lat="50.05768" lon="2.21756">
        <ele>53.4</ele>
        <time>2013-03-31T09:52:06Z</time>
      </trkpt>
      <trkpt lat="50.05755" lon="2.21764">
        <ele>53.2</ele>
        <time>2013-03-31T09:52:11Z</time>
      </trkpt>
      <trkpt lat="50.05746" lon="2.21746">
        <ele>52.5</ele>
        <time>2013-03-31T09:52:24Z</time>
      </trkpt>
      <trkpt lat="50.05735" lon="2.21732">
        <ele>51.8</ele>
        <time>2013-03-31T09:52:36Z</time>
      </trkpt>
      <trkpt lat="50.05721" lon="2.21724">
        <ele>51.4</ele>
        <time>2013-03-31T09:52:45Z</time>
      </trkpt>
      <trkpt lat="50.05708" lon="2.21719">
        <ele>48</ele>
        <time>2013-03-31T09:52:57Z</time>
      </trkpt>
      <trkpt lat="50.05703" lon="2.21698">
        <ele>47.5</ele>
        <time>2013-03-31T09:53:07Z</time>
      </trkpt>
      <trkpt lat="50.05712" lon="2.2168">
        <ele>46</ele>
        <time>2013-03-31T09:53:19Z</time>
      </trkpt>
      <trkpt lat="50.0572" lon="2.21671">
        <ele>43.7</ele>
        <time>2013-03-31T09:53:26Z</time>
      </trkpt>
      <trkpt lat="50.05717" lon="2.21649">
        <ele>48</ele>
        <time>2013-03-31T09:53:31Z</time>
      </trkpt>
      <trkpt lat="50.05712" lon="2.21628">
        <ele>46.8</ele>
        <time>2013-03-31T09:53:38Z</time>
      </trkpt>
      <trkpt lat="50.05722" lon="2.21613">
        <ele>43.3</ele>
        <time>2013-03-31T09:53:51Z</time>
      </trkpt>
      <trkpt lat="50.05731" lon="2.21596">
        <ele>42.2</ele>
        <time>2013-03-31T09:54:02Z</time>
      </trkpt>
      <trkpt lat="50.05722" lon="2.21577">
        <ele>46.3</ele>
        <time>2013-03-31T09:54:12Z</time>
      </trkpt>
      <trkpt lat="50.05709" lon="2.21576">
        <ele>48.8</ele>
        <time>2013-03-31T09:54:22Z</time>
      </trkpt>
      <trkpt lat="50.05694" lon="2.21574">
        <ele>50.2</ele>
        <time>2013-03-31T09:54:33Z</time>
      </trkpt>
      <trkpt lat="50.05681" lon="2.21571">
        <ele>51.5</ele>
        <time>2013-03-31T09:54:45Z</time>
      </trkpt>
      <trkpt lat="50.05666" lon="2.21562">
        <ele>52</ele>
        <time>2013-03-31T09:54:54Z</time>
      </trkpt>
      <trkpt lat="50.05652" lon="2.21559">
        <ele>52</ele>
        <time>2013-03-31T09:55:06Z</time>
      </trkpt>
      <trkpt lat="50.05639" lon="2.21553">
        <ele>54.7</ele>
        <time>2013-03-31T09:55:18Z</time>
      </trkpt>
      <trkpt lat="50.05626" lon="2.2154">
        <ele>55.5</ele>
        <time>2013-03-31T09:55:28Z</time>
      </trkpt>
      <trkpt lat="50.05616" lon="2.21526">
        <ele>55.7</ele>
        <time>2013-03-31T09:55:39Z</time>
      </trkpt>
      <trkpt lat="50.05603" lon="2.21517">
        <ele>54.9</ele>
        <time>2013-03-31T09:55:51Z</time>
      </trkpt>
      <trkpt lat="50.0559" lon="2.21511">
        <ele>56.8</ele>
        <time>2013-03-31T09:55:59Z</time>
      </trkpt>
      <trkpt lat="50.05576" lon="2.21508">
        <ele>57.7</ele>
        <time>2013-03-31T09:56:12Z</time>
      </trkpt>
      <trkpt lat="50.05565" lon="2.21493">
        <ele>57.3</ele>
        <time>2013-03-31T09:56:23Z</time>
      </trkpt>
      <trkpt lat="50.05554" lon="2.2148">
        <ele>57</ele>
        <time>2013-03-31T09:56:32Z</time>
      </trkpt>
      <trkpt lat="50.05545" lon="2.21473">
        <ele>56.6</ele>
        <time>2013-03-31T09:56:43Z</time>
      </trkpt>
      <trkpt lat="50.05546" lon="2.21466">
        <ele>56.4</ele>
        <time>2013-03-31T09:56:47Z</time>
      </trkpt>
      <trkpt lat="50.05536" lon="2.21452">
        <ele>56</ele>
        <time>2013-03-31T09:56:57Z</time>
      </trkpt>
      <trkpt lat="50.05526" lon="2.21436">
        <ele>55.4</ele>
        <time>2013-03-31T09:57:13Z</time>
      </trkpt>
      <trkpt lat="50.05516" lon="2.21417">
        <ele>55.1</ele>
        <time>2013-03-31T09:57:21Z</time>
      </trkpt>
      <trkpt lat="50.05508" lon="2.21399">
        <ele>54.7</ele>
        <time>2013-03-31T09:57:32Z</time>
      </trkpt>
      <trkpt lat="50.05503" lon="2.21378">
        <ele>54.2</ele>
        <time>2013-03-31T09:57:45Z</time>
      </trkpt>
      <trkpt lat="50.05499" lon="2.21358">
        <ele>53.7</ele>
        <time>2013-03-31T09:57:58Z</time>
      </trkpt>
      <trkpt lat="50.05489" lon="2.21343">
        <ele>53.3</ele>
        <time>2013-03-31T09:58:08Z</time>
      </trkpt>
      <trkpt lat="50.05483" lon="2.21324">
        <ele>52.8</ele>
        <time>2013-03-31T09:58:19Z</time>
      </trkpt>
      <trkpt lat="50.05477" lon="2.21304">
        <ele>52.4</ele>
        <time>2013-03-31T09:58:31Z</time>
      </trkpt>
      <trkpt lat="50.05473" lon="2.21282">
        <ele>52.1</ele>
        <time>2013-03-31T09:58:38Z</time>
      </trkpt>
      <trkpt lat="50.05467" lon="2.21263">
        <ele>51.7</ele>
        <time>2013-03-31T09:58:48Z</time>
      </trkpt>
      <trkpt lat="50.0547" lon="2.21242">
        <ele>51</ele>
        <time>2013-03-31T09:59:04Z</time>
      </trkpt>
      <trkpt lat="50.0547" lon="2.2122">
        <ele>49</ele>
        <time>2013-03-31T09:59:13Z</time>
      </trkpt>
      <trkpt lat="50.05469" lon="2.21198">
        <ele>46.5</ele>
        <time>2013-03-31T09:59:24Z</time>
      </trkpt>
      <trkpt lat="50.05465" lon="2.21177">
        <ele>44.4</ele>
        <time>2013-03-31T09:59:35Z</time>
      </trkpt>
      <trkpt lat="50.05463" lon="2.21156">
        <ele>44.8</ele>
        <time>2013-03-31T09:59:46Z</time>
      </trkpt>
      <trkpt lat="50.05463" lon="2.21134">
        <ele>45.5</ele>
        <time>2013-03-31T09:59:53Z</time>
      </trkpt>
      <trkpt lat="50.05462" lon="2.21113">
        <ele>45.5</ele>
        <time>2013-03-31T10:00:07Z</time>
      </trkpt>
      <trkpt lat="50.05464" lon="2.21091">
        <ele>44.6</ele>
        <time>2013-03-31T10:00:22Z</time>
      </trkpt>
      <trkpt lat="50.05465" lon="2.21069">
        <ele>43.6</ele>
        <time>2013-03-31T10:00:38Z</time>
      </trkpt>
      <trkpt lat="50.05464" lon="2.21047">
        <ele>43.1</ele>
        <time>2013-03-31T10:00:46Z</time>
      </trkpt>
      <trkpt lat="50.05462" lon="2.21024">
        <ele>42.5</ele>
        <time>2013-03-31T10:00:56Z</time>
      </trkpt>
      <trkpt lat="50.05463" lon="2.21003">
        <ele>41.8</ele>
        <time>2013-03-31T10:01:07Z</time>
      </trkpt>
      <trkpt lat="50.05465" lon="2.20982">
        <ele>41</ele>
        <time>2013-03-31T10:01:17Z</time>
      </trkpt>
      <trkpt lat="50.05465" lon="2.2096">
        <ele>40.3</ele>
        <time>2013-03-31T10:01:27Z</time>
      </trkpt>
      <trkpt lat="50.05463" lon="2.20938">
        <ele>38.8</ele>
        <time>2013-03-31T10:01:39Z</time>
      </trkpt>
      <trkpt lat="50.05461" lon="2.20915">
        <ele>37.1</ele>
        <time>2013-03-31T10:01:50Z</time>
      </trkpt>
      <trkpt lat="50.05461" lon="2.20893">
        <ele>37.4</ele>
        <time>2013-03-31T10:02:01Z</time>
      </trkpt>
      <trkpt lat="50.05454" lon="2.20873">
        <ele>39.5</ele>
        <time>2013-03-31T10:02:11Z</time>
      </trkpt>
      <trkpt lat="50.05453" lon="2.20851">
        <ele>41.4</ele>
        <time>2013-03-31T10:02:24Z</time>
      </trkpt>
      <trkpt lat="50.05448" lon="2.2083">
        <ele>42.4</ele>
        <time>2013-03-31T10:02:36Z</time>
      </trkpt>
      <trkpt lat="50.0545" lon="2.20808">
        <ele>43.2</ele>
        <time>2013-03-31T10:02:46Z</time>
      </trkpt>
      <trkpt lat="50.05447" lon="2.20785">
        <ele>43.8</ele>
        <time>2013-03-31T10:02:53Z</time>
      </trkpt>
      <trkpt lat="50.05442" lon="2.20763">
        <ele>45.3</ele>
        <time>2013-03-31T10:03:12Z</time>
      </trkpt>
      <trkpt lat="50.05434" lon="2.20743">
        <ele>46</ele>
        <time>2013-03-31T10:03:20Z</time>
      </trkpt>
      <trkpt lat="50.05429" lon="2.2072">
        <ele>49.8</ele>
        <time>2013-03-31T10:03:29Z</time>
      </trkpt>
      <trkpt lat="50.05425" lon="2.20699">
        <ele>53</ele>
        <time>2013-03-31T10:03:39Z</time>
      </trkpt>
      <trkpt lat="50.05422" lon="2.20677">
        <ele>55.6</ele>
        <time>2013-03-31T10:03:50Z</time>
      </trkpt>
      <trkpt lat="50.05424" lon="2.20655">
        <ele>57.5</ele>
        <time>2013-03-31T10:03:58Z</time>
      </trkpt>
      <trkpt lat="50.05418" lon="2.20635">
        <ele>58</ele>
        <time>2013-03-31T10:04:05Z</time>
      </trkpt>
      <trkpt lat="50.05411" lon="2.20616">
        <ele>58</ele>
        <time>2013-03-31T10:04:18Z</time>
      </trkpt>
      <trkpt lat="50.05403" lon="2.20597">
        <ele>57.3</ele>
        <time>2013-03-31T10:04:31Z</time>
      </trkpt>
      <trkpt lat="50.05399" lon="2.20577">
        <ele>55.4</ele>
        <time>2013-03-31T10:04:42Z</time>
      </trkpt>
      <trkpt lat="50.05393" lon="2.20555">
        <ele>53.2</ele>
        <time>2013-03-31T10:04:51Z</time>
      </trkpt>
      <trkpt lat="50.05385" lon="2.20536">
        <ele>52.3</ele>
        <time>2013-03-31T10:04:58Z</time>
      </trkpt>
      <trkpt lat="50.0538" lon="2.20524">
        <ele>51.6</ele>
        <time>2013-03-31T10:05:04Z</time>
      </trkpt>
      <trkpt lat="50.05388" lon="2.20518">
        <ele>47.2</ele>
        <time>2013-03-31T10:05:18Z</time>
      </trkpt>
      <trkpt lat="50.05387" lon="2.20496">
        <ele>44.7</ele>
        <time>2013-03-31T10:05:27Z</time>
      </trkpt>
      <trkpt lat="50.05386" lon="2.20475">
        <ele>40</ele>
        <time>2013-03-31T10:05:41Z</time>
      </trkpt>
      <trkpt lat="50.05381" lon="2.20453">
        <ele>37.7</ele>
        <time>2013-03-31T10:05:51Z</time>
      </trkpt>
      <trkpt lat="50.05374" lon="2.20435">
        <ele>37.1</ele>
        <time>2013-03-31T10:06:01Z</time>
      </trkpt>
      <trkpt lat="50.05374" lon="2.20414">
        <ele>35</ele>
        <time>2013-03-31T10:06:21Z</time>
      </trkpt>
      <trkpt lat="50.05369" lon="2.20392">
        <ele>35</ele>
        <time>2013-03-31T10:06:33Z</time>
      </trkpt>
      <trkpt lat="50.05365" lon="2.20372">
        <ele>36.4</ele>
        <time>2013-03-31T10:06:41Z</time>
      </trkpt>
      <trkpt lat="50.05356" lon="2.20355">
        <ele>38</ele>
        <time>2013-03-31T10:06:47Z</time>
      </trkpt>
      <trkpt lat="50.0535" lon="2.20335">
        <ele>39.4</ele>
        <time>2013-03-31T10:06:58Z</time>
      </trkpt>
      <trkpt lat="50.05344" lon="2.20315">
        <ele>40.8</ele>
        <time>2013-03-31T10:07:09Z</time>
      </trkpt>
      <trkpt lat="50.05337" lon="2.20297">
        <ele>41.6</ele>
        <time>2013-03-31T10:07:22Z</time>
      </trkpt>
      <trkpt lat="50.05335" lon="2.20276">
        <ele>42.1</ele>
        <time>2013-03-31T10:07:30Z</time>
      </trkpt>
      <trkpt lat="50.05329" lon="2.20255">
        <ele>42.8</ele>
        <time>2013-03-31T10:07:41Z</time>
      </trkpt>
      <trkpt lat="50.0532" lon="2.20239">
        <ele>43.5</ele>
        <time>2013-03-31T10:07:53Z</time>
      </trkpt>
      <trkpt lat="50.05316" lon="2.20217">
        <ele>44.1</ele>
        <time>2013-03-31T10:08:04Z</time>
      </trkpt>
      <trkpt lat="50.05309" lon="2.20199">
        <ele>44.7</ele>
        <time>2013-03-31T10:08:14Z</time>
      </trkpt>
      <trkpt lat="50.05299" lon="2.2018">
        <ele>46.2</ele>
        <time>2013-03-31T10:08:22Z</time>
      </trkpt>
      <trkpt lat="50.05297" lon="2.2016">
        <ele>45.3</ele>
        <time>2013-03-31T10:08:32Z</time>
      </trkpt>
      <trkpt lat="50.05295" lon="2.20138">
        <ele>46.4</ele>
        <time>2013-03-31T10:08:42Z</time>
      </trkpt>
      <trkpt lat="50.0529" lon="2.20117">
        <ele>47.6</ele>
        <time>2013-03-31T10:08:53Z</time>
      </trkpt>
      <trkpt lat="50.05286" lon="2.20096">
        <ele>48.7</ele>
        <time>2013-03-31T10:09:05Z</time>
      </trkpt>
      <trkpt lat="50.05277" lon="2.20079">
        <ele>49.6</ele>
        <time>2013-03-31T10:09:15Z</time>
      </trkpt>
      <trkpt lat="50.05269" lon="2.20061">
        <ele>48.8</ele>
        <time>2013-03-31T10:09:26Z</time>
      </trkpt>
      <trkpt lat="50.05263" lon="2.20042">
        <ele>46.7</ele>
        <time>2013-03-31T10:09:39Z</time>
      </trkpt>
      <trkpt lat="50.05258" lon="2.20021">
        <ele>44.8</ele>
        <time>2013-03-31T10:09:50Z</time>
      </trkpt>
      <trkpt lat="50.05256" lon="2.2">
        <ele>40.8</ele>
        <time>2013-03-31T10:10:00Z</time>
      </trkpt>
      <trkpt lat="50.0525" lon="2.19981">
        <ele>38.8</ele>
        <time>2013-03-31T10:10:12Z</time>
      </trkpt>
      <trkpt lat="50.05244" lon="2.19962">
        <ele>37.8</ele>
        <time>2013-03-31T10:10:21Z</time>
      </trkpt>
      <trkpt lat="50.05241" lon="2.19941">
        <ele>35.2</ele>
        <time>2013-03-31T10:10:38Z</time>
      </trkpt>
      <trkpt lat="50.05236" lon="2.19918">
        <ele>33.1</ele>
        <time>2013-03-31T10:10:49Z</time>
      </trkpt>
      <trkpt lat="50.0523" lon="2.19898">
        <ele>32.4</ele>
        <time>2013-03-31T10:10:57Z</time>
      </trkpt>
      <trkpt lat="50.05223" lon="2.19879">
        <ele>33.8</ele>
        <time>2013-03-31T10:11:06Z</time>
      </trkpt>
      <trkpt lat="50.05218" lon="2.1986">
        <ele>35.2</ele>
        <time>2013-03-31T10:11:18Z</time>
      </trkpt>
      <trkpt lat="50.05209" lon="2.19843">
        <ele>36.5</ele>
        <time>2013-03-31T10:11:30Z</time>
      </trkpt>
      <trkpt lat="50.05199" lon="2.19826">
        <ele>36.5</ele>
        <time>2013-03-31T10:11:38Z</time>
      </trkpt>
      <trkpt lat="50.05198" lon="2.19805">
        <ele>35</ele>
        <time>2013-03-31T10:11:48Z</time>
      </trkpt>
      <trkpt lat="50.05197" lon="2.19783">
        <ele>33</ele>
        <time>2013-03-31T10:12:01Z</time>
      </trkpt>
      <trkpt lat="50.05193" lon="2.19763">
        <ele>31.5</ele>
        <time>2013-03-31T10:12:10Z</time>
      </trkpt>
      <trkpt lat="50.05194" lon="2.1974">
        <ele>30</ele>
        <time>2013-03-31T10:12:19Z</time>
      </trkpt>
      <trkpt lat="50.05183" lon="2.19722">
        <ele>27</ele>
        <time>2013-03-31T10:12:32Z</time>
      </trkpt>
      <trkpt lat="50.05175" lon="2.19705">
        <ele>30.5</ele>
        <time>2013-03-31T10:12:42Z</time>
      </trkpt>
      <trkpt lat="50.05166" lon="2.19685">
        <ele>33.3</ele>
        <time>2013-03-31T10:12:49Z</time>
      </trkpt>
      <trkpt lat="50.05159" lon="2.19667">
        <ele>34.6</ele>
        <time>2013-03-31T10:13:00Z</time>
      </trkpt>
      <trkpt lat="50.05154" lon="2.19646">
        <ele>35.8</ele>
        <time>2013-03-31T10:13:09Z</time>
      </trkpt>
      <trkpt lat="50.05144" lon="2.1963">
        <ele>36.8</ele>
        <time>2013-03-31T10:13:20Z</time>
      </trkpt>
      <trkpt lat="50.05137" lon="2.1961">
        <ele>35</ele>
        <time>2013-03-31T10:13:31Z</time>
      </trkpt>
      <trkpt lat="50.05131" lon="2.19588">
        <ele>35</ele>
        <time>2013-03-31T10:13:41Z</time>
      </trkpt>
      <trkpt lat="50.05121" lon="2.19573">
        <ele>36.4</ele>
        <time>2013-03-31T10:13:55Z</time>
      </trkpt>
      <trkpt lat="50.05119" lon="2.19552">
        <ele>37.7</ele>
        <time>2013-03-31T10:14:05Z</time>
      </trkpt>
      <trkpt lat="50.05117" lon="2.19531">
        <ele>34.4</ele>
        <time>2013-03-31T10:14:20Z</time>
      </trkpt>
      <trkpt lat="50.05109" lon="2.19513">
        <ele>33.4</ele>
        <time>2013-03-31T10:14:28Z</time>
      </trkpt>
      <trkpt lat="50.05108" lon="2.1949">
        <ele>32</ele>
        <time>2013-03-31T10:14:39Z</time>
      </trkpt>
      <trkpt lat="50.05102" lon="2.1947">
        <ele>31.1</ele>
        <time>2013-03-31T10:14:50Z</time>
      </trkpt>
      <trkpt lat="50.05105" lon="2.19447">
        <ele>30.2</ele>
        <time>2013-03-31T10:15:01Z</time>
      </trkpt>
      <trkpt lat="50.05097" lon="2.1943">
        <ele>29.4</ele>
        <time>2013-03-31T10:15:11Z</time>
      </trkpt>
      <trkpt lat="50.05088" lon="2.19412">
        <ele>28.8</ele>
        <time>2013-03-31T10:15:19Z</time>
      </trkpt>
      <trkpt lat="50.05078" lon="2.19394">
        <ele>27.7</ele>
        <time>2013-03-31T10:15:30Z</time>
      </trkpt>
      <trkpt lat="50.05071" lon="2.19379">
        <ele>25.7</ele>
        <time>2013-03-31T10:15:37Z</time>
      </trkpt>
      <trkpt lat="50.05074" lon="2.19362">
        <ele>29.1</ele>
        <time>2013-03-31T10:15:46Z</time>
      </trkpt>
      <trkpt lat="50.05065" lon="2.19346">
        <ele>31.6</ele>
        <time>2013-03-31T10:15:58Z</time>
      </trkpt>
      <trkpt lat="50.05062" lon="2.19323">
        <ele>32.6</ele>
        <time>2013-03-31T10:16:10Z</time>
      </trkpt>
      <trkpt lat="50.05063" lon="2.19301">
        <ele>29.5</ele>
        <time>2013-03-31T10:16:27Z</time>
      </trkpt>
      <trkpt lat="50.05064" lon="2.19278">
        <ele>27.8</ele>
        <time>2013-03-31T10:16:38Z</time>
      </trkpt>
      <trkpt lat="50.05062" lon="2.19255">
        <ele>27.1</ele>
        <time>2013-03-31T10:16:50Z</time>
      </trkpt>
      <trkpt lat="50.05061" lon="2.19233">
        <ele>26.5</ele>
        <time>2013-03-31T10:17:01Z</time>
      </trkpt>
      <trkpt lat="50.05061" lon="2.19211">
        <ele>28.4</ele>
        <time>2013-03-31T10:17:12Z</time>
      </trkpt>
      <trkpt lat="50.05055" lon="2.19195">
        <ele>30.6</ele>
        <time>2013-03-31T10:17:21Z</time>
      </trkpt>
      <trkpt lat="50.05058" lon="2.19173">
        <ele>29.5</ele>
        <time>2013-03-31T10:17:35Z</time>
      </trkpt>
      <trkpt lat="50.05054" lon="2.19152">
        <ele>28.9</ele>
        <time>2013-03-31T10:17:44Z</time>
      </trkpt>
      <trkpt lat="50.0505" lon="2.1913">
        <ele>28.3</ele>
        <time>2013-03-31T10:17:52Z</time>
      </trkpt>
      <trkpt lat="50.0505" lon="2.19109">
        <ele>25.4</ele>
        <time>2013-03-31T10:18:02Z</time>
      </trkpt>
      <trkpt lat="50.05048" lon="2.19088">
        <ele>21</ele>
        <time>2013-03-31T10:18:12Z</time>
      </trkpt>
      <trkpt lat="50.05048" lon="2.19066">
        <ele>24.6</ele>
        <time>2013-03-31T10:18:22Z</time>
      </trkpt>
      <trkpt lat="50.05044" lon="2.19045">
        <ele>30</ele>
        <time>2013-03-31T10:18:35Z</time>
      </trkpt>
      <trkpt lat="50.05041" lon="2.19023">
        <ele>35</ele>
        <time>2013-03-31T10:18:47Z</time>
      </trkpt>
      <trkpt lat="50.05038" lon="2.19002">
        <ele>38.3</ele>
        <time>2013-03-31T10:18:56Z</time>
      </trkpt>
      <trkpt lat="50.05036" lon="2.18981">
        <ele>36.1</ele>
        <time>2013-03-31T10:19:06Z</time>
      </trkpt>
      <trkpt lat="50.05035" lon="2.1896">
        <ele>36.6</ele>
        <time>2013-03-31T10:19:17Z</time>
      </trkpt>
      <trkpt lat="50.05037" lon="2.18937">
        <ele>36.8</ele>
        <time>2013-03-31T10:19:29Z</time>
      </trkpt>
      <trkpt lat="50.05031" lon="2.18917">
        <ele>34.5</ele>
        <time>2013-03-31T10:19:40Z</time>
      </trkpt>
      <trkpt lat="50.05033" lon="2.18895">
        <ele>37.2</ele>
        <time>2013-03-31T10:19:55Z</time>
      </trkpt>
      <trkpt lat="50.05031" lon="2.18873">
        <ele>38.8</ele>
        <time>2013-03-31T10:20:05Z</time>
      </trkpt>
      <trkpt lat="50.0503" lon="2.18851">
        <ele>40</ele>
        <time>2013-03-31T10:20:15Z</time>
      </trkpt>
      <trkpt lat="50.05025" lon="2.18829">
        <ele>41</ele>
        <time>2013-03-31T10:20:24Z</time>
      </trkpt>
      <trkpt lat="50.05028" lon="2.18808">
        <ele>41.1</ele>
        <time>2013-03-31T10:20:37Z</time>
      </trkpt>
      <trkpt lat="50.05024" lon="2.18787">
        <ele>39.4</ele>
        <time>2013-03-31T10:20:46Z</time>
      </trkpt>
      <trkpt lat="50.05021" lon="2.18765">
        <ele>41.8</ele>
        <time>2013-03-31T10:20:55Z</time>
      </trkpt>
      <trkpt lat="50.05022" lon="2.18743">
        <ele>38</ele>
        <time>2013-03-31T10:21:11Z</time>
      </trkpt>
      <trkpt lat="50.05022" lon="2.18722">
        <ele>34.2</ele>
        <time>2013-03-31T10:21:20Z</time>
      </trkpt>
      <trkpt lat="50.0502" lon="2.18701">
        <ele>34.6</ele>
        <time>2013-03-31T10:21:28Z</time>
      </trkpt>
      <trkpt lat="50.05017" lon="2.18679">
        <ele>35.3</ele>
        <time>2013-03-31T10:21:39Z</time>
      </trkpt>
      <trkpt lat="50.05011" lon="2.18659">
        <ele>35.7</ele>
        <time>2013-03-31T10:21:46Z</time>
      </trkpt>
      <trkpt lat="50.05015" lon="2.18637">
        <ele>36.6</ele>
        <time>2013-03-31T10:22:02Z</time>
      </trkpt>
      <trkpt lat="50.05012" lon="2.18614">
        <ele>38.5</ele>
        <time>2013-03-31T10:22:14Z</time>
      </trkpt>
      <trkpt lat="50.05011" lon="2.18592">
        <ele>39.9</ele>
        <time>2013-03-31T10:22:22Z</time>
      </trkpt>
      <trkpt lat="50.05007" lon="2.18571">
        <ele>39.3</ele>
        <time>2013-03-31T10:22:32Z</time>
      </trkpt>
      <trkpt lat="50.05009" lon="2.18563">
        <ele>39.1</ele>
        <time>2013-03-31T10:22:37Z</time>
      </trkpt>
      <trkpt lat="50.05007" lon="2.18542">
        <ele>38.5</ele>
        <time>2013-03-31T10:22:48Z</time>
      </trkpt>
      <trkpt lat="50.05008" lon="2.1852">
        <ele>37.7</ele>
        <time>2013-03-31T10:23:02Z</time>
      </trkpt>
      <trkpt lat="50.05003" lon="2.18498">
        <ele>37.2</ele>
        <time>2013-03-31T10:23:12Z</time>
      </trkpt>
      <trkpt lat="50.05002" lon="2.18476">
        <ele>39</ele>
        <time>2013-03-31T10:23:19Z</time>
      </trkpt>
      <trkpt lat="50.05012" lon="2.18462">
        <ele>39.6</ele>
        <time>2013-03-31T10:23:33Z</time>
      </trkpt>
      <trkpt lat="50.05027" lon="2.18466">
        <ele>38.9</ele>
        <time>2013-03-31T10:24:00Z</time>
      </trkpt>
    </trkseg>
  </trk>
</gpx>